<?xml version="1.0" encoding="UTF-8" standalone="no" ?>
<gpx xmlns="http://www.topografix.com/GPX/1/1" xmlns:xsi="http://www.w3.org/2001/XMLSchema-instance" xsi:schemaLocation="http://www.topografix.com/GPX/1/1 http://www.topografix.com/GPX/1/1/gpx.xsd" version="1.1" creator="VisuGPX - https://www.visugpx.com">
  <metadata>
    <name>Plouguerneau Bourg</name>
    <desc><![CDATA[Un essai sur Plouguerneau bourg]]></desc>
  </metadata>
  <trk>
    <name><![CDATA[Trc-110620-2,39km]]></name>
    <trkseg>
      <trkpt lat="48.61021" lon="-4.50364">
        <ele>43.4</ele>
        <time>2011-06-20T10:27:34Z</time>
      </trkpt>
      <trkpt lat="48.61021" lon="-4.50364">
        <ele>43.4</ele>
        <time>2011-06-20T10:28:23Z</time>
      </trkpt>
      <trkpt lat="48.60995" lon="-4.50351">
        <ele>49.1</ele>
        <time>2011-06-20T10:28:24Z</time>
      </trkpt>
      <trkpt lat="48.60994" lon="-4.50351">
        <ele>49.3</ele>
        <time>2011-06-20T10:28:25Z</time>
      </trkpt>
      <trkpt lat="48.60993" lon="-4.50352">
        <ele>48.9</ele>
        <time>2011-06-20T10:28:26Z</time>
      </trkpt>
      <trkpt lat="48.60992" lon="-4.50352">
        <ele>49.1</ele>
        <time>2011-06-20T10:28:27Z</time>
      </trkpt>
      <trkpt lat="48.6099" lon="-4.50352">
        <ele>49.4</ele>
        <time>2011-06-20T10:28:28Z</time>
      </trkpt>
      <trkpt lat="48.60989" lon="-4.50352">
        <ele>49.7</ele>
        <time>2011-06-20T10:28:29Z</time>
      </trkpt>
      <trkpt lat="48.60987" lon="-4.50351">
        <ele>49.8</ele>
        <time>2011-06-20T10:28:30Z</time>
      </trkpt>
      <trkpt lat="48.60986" lon="-4.50351">
        <ele>49.9</ele>
        <time>2011-06-20T10:28:31Z</time>
      </trkpt>
      <trkpt lat="48.60985" lon="-4.50352">
        <ele>50.1</ele>
        <time>2011-06-20T10:28:32Z</time>
      </trkpt>
      <trkpt lat="48.60984" lon="-4.50352">
        <ele>50.2</ele>
        <time>2011-06-20T10:28:33Z</time>
      </trkpt>
      <trkpt lat="48.60983" lon="-4.50353">
        <ele>50.2</ele>
        <time>2011-06-20T10:28:35Z</time>
      </trkpt>
      <trkpt lat="48.60983" lon="-4.50353">
        <ele>50.2</ele>
        <time>2011-06-20T10:28:41Z</time>
      </trkpt>
      <trkpt lat="48.60973" lon="-4.50355">
        <ele>54.2</ele>
        <time>2011-06-20T10:28:42Z</time>
      </trkpt>
      <trkpt lat="48.60971" lon="-4.50355">
        <ele>54.5</ele>
        <time>2011-06-20T10:28:43Z</time>
      </trkpt>
      <trkpt lat="48.6097" lon="-4.50356">
        <ele>54</ele>
        <time>2011-06-20T10:28:44Z</time>
      </trkpt>
      <trkpt lat="48.60969" lon="-4.50357">
        <ele>54.7</ele>
        <time>2011-06-20T10:28:45Z</time>
      </trkpt>
      <trkpt lat="48.60968" lon="-4.50357">
        <ele>55.7</ele>
        <time>2011-06-20T10:28:46Z</time>
      </trkpt>
      <trkpt lat="48.60967" lon="-4.50357">
        <ele>53.4</ele>
        <time>2011-06-20T10:28:48Z</time>
      </trkpt>
      <trkpt lat="48.60965" lon="-4.50357">
        <ele>51.9</ele>
        <time>2011-06-20T10:28:50Z</time>
      </trkpt>
      <trkpt lat="48.60963" lon="-4.50357">
        <ele>52.4</ele>
        <time>2011-06-20T10:28:52Z</time>
      </trkpt>
      <trkpt lat="48.60963" lon="-4.50357">
        <ele>52.4</ele>
        <time>2011-06-20T10:29:06Z</time>
      </trkpt>
      <trkpt lat="48.60943" lon="-4.50365">
        <ele>56.3</ele>
        <time>2011-06-20T10:29:07Z</time>
      </trkpt>
      <trkpt lat="48.60941" lon="-4.50365">
        <ele>57.1</ele>
        <time>2011-06-20T10:29:08Z</time>
      </trkpt>
      <trkpt lat="48.60939" lon="-4.50365">
        <ele>56.2</ele>
        <time>2011-06-20T10:29:10Z</time>
      </trkpt>
      <trkpt lat="48.60939" lon="-4.50366">
        <ele>55.9</ele>
        <time>2011-06-20T10:29:11Z</time>
      </trkpt>
      <trkpt lat="48.60938" lon="-4.50366">
        <ele>55.5</ele>
        <time>2011-06-20T10:29:12Z</time>
      </trkpt>
      <trkpt lat="48.60936" lon="-4.50367">
        <ele>56.4</ele>
        <time>2011-06-20T10:29:13Z</time>
      </trkpt>
      <trkpt lat="48.60935" lon="-4.50368">
        <ele>56.6</ele>
        <time>2011-06-20T10:29:14Z</time>
      </trkpt>
      <trkpt lat="48.60934" lon="-4.50368">
        <ele>56.7</ele>
        <time>2011-06-20T10:29:15Z</time>
      </trkpt>
      <trkpt lat="48.60933" lon="-4.50368">
        <ele>56.5</ele>
        <time>2011-06-20T10:29:16Z</time>
      </trkpt>
      <trkpt lat="48.60932" lon="-4.50368">
        <ele>56.1</ele>
        <time>2011-06-20T10:29:17Z</time>
      </trkpt>
      <trkpt lat="48.6093" lon="-4.50369">
        <ele>56.5</ele>
        <time>2011-06-20T10:29:18Z</time>
      </trkpt>
      <trkpt lat="48.60929" lon="-4.5037">
        <ele>56.1</ele>
        <time>2011-06-20T10:29:19Z</time>
      </trkpt>
      <trkpt lat="48.60928" lon="-4.5037">
        <ele>55.9</ele>
        <time>2011-06-20T10:29:20Z</time>
      </trkpt>
      <trkpt lat="48.60927" lon="-4.5037">
        <ele>55.9</ele>
        <time>2011-06-20T10:29:21Z</time>
      </trkpt>
      <trkpt lat="48.60925" lon="-4.5037">
        <ele>55.6</ele>
        <time>2011-06-20T10:29:22Z</time>
      </trkpt>
      <trkpt lat="48.60923" lon="-4.5037">
        <ele>56</ele>
        <time>2011-06-20T10:29:23Z</time>
      </trkpt>
      <trkpt lat="48.60922" lon="-4.50371">
        <ele>55.9</ele>
        <time>2011-06-20T10:29:24Z</time>
      </trkpt>
      <trkpt lat="48.60922" lon="-4.50371">
        <ele>55.7</ele>
        <time>2011-06-20T10:29:25Z</time>
      </trkpt>
      <trkpt lat="48.60921" lon="-4.50372">
        <ele>55.6</ele>
        <time>2011-06-20T10:29:27Z</time>
      </trkpt>
      <trkpt lat="48.60921" lon="-4.50372">
        <ele>55.6</ele>
        <time>2011-06-20T10:29:35Z</time>
      </trkpt>
      <trkpt lat="48.60909" lon="-4.50377">
        <ele>55.1</ele>
        <time>2011-06-20T10:29:36Z</time>
      </trkpt>
      <trkpt lat="48.60908" lon="-4.50377">
        <ele>55.5</ele>
        <time>2011-06-20T10:29:37Z</time>
      </trkpt>
      <trkpt lat="48.60907" lon="-4.50378">
        <ele>55.5</ele>
        <time>2011-06-20T10:29:38Z</time>
      </trkpt>
      <trkpt lat="48.60906" lon="-4.50378">
        <ele>55.5</ele>
        <time>2011-06-20T10:29:39Z</time>
      </trkpt>
      <trkpt lat="48.60905" lon="-4.50378">
        <ele>55.3</ele>
        <time>2011-06-20T10:29:40Z</time>
      </trkpt>
      <trkpt lat="48.60904" lon="-4.50377">
        <ele>55.5</ele>
        <time>2011-06-20T10:29:41Z</time>
      </trkpt>
      <trkpt lat="48.60902" lon="-4.50377">
        <ele>55.6</ele>
        <time>2011-06-20T10:29:42Z</time>
      </trkpt>
      <trkpt lat="48.60901" lon="-4.50378">
        <ele>55.8</ele>
        <time>2011-06-20T10:29:43Z</time>
      </trkpt>
      <trkpt lat="48.609" lon="-4.50378">
        <ele>56</ele>
        <time>2011-06-20T10:29:44Z</time>
      </trkpt>
      <trkpt lat="48.60899" lon="-4.50378">
        <ele>55</ele>
        <time>2011-06-20T10:29:45Z</time>
      </trkpt>
      <trkpt lat="48.60898" lon="-4.50378">
        <ele>54.6</ele>
        <time>2011-06-20T10:29:46Z</time>
      </trkpt>
      <trkpt lat="48.60896" lon="-4.50379">
        <ele>55.3</ele>
        <time>2011-06-20T10:29:47Z</time>
      </trkpt>
      <trkpt lat="48.60895" lon="-4.5038">
        <ele>56.1</ele>
        <time>2011-06-20T10:29:48Z</time>
      </trkpt>
      <trkpt lat="48.60893" lon="-4.5038">
        <ele>55.7</ele>
        <time>2011-06-20T10:29:49Z</time>
      </trkpt>
      <trkpt lat="48.60892" lon="-4.5038">
        <ele>55.8</ele>
        <time>2011-06-20T10:29:50Z</time>
      </trkpt>
      <trkpt lat="48.60891" lon="-4.50381">
        <ele>55.8</ele>
        <time>2011-06-20T10:29:51Z</time>
      </trkpt>
      <trkpt lat="48.6089" lon="-4.50381">
        <ele>56.1</ele>
        <time>2011-06-20T10:29:52Z</time>
      </trkpt>
      <trkpt lat="48.60889" lon="-4.50381">
        <ele>56</ele>
        <time>2011-06-20T10:29:53Z</time>
      </trkpt>
      <trkpt lat="48.60887" lon="-4.50382">
        <ele>57.1</ele>
        <time>2011-06-20T10:29:54Z</time>
      </trkpt>
      <trkpt lat="48.60886" lon="-4.50384">
        <ele>59.2</ele>
        <time>2011-06-20T10:29:55Z</time>
      </trkpt>
      <trkpt lat="48.60885" lon="-4.50384">
        <ele>59.2</ele>
        <time>2011-06-20T10:29:56Z</time>
      </trkpt>
      <trkpt lat="48.60883" lon="-4.50384">
        <ele>59.1</ele>
        <time>2011-06-20T10:29:57Z</time>
      </trkpt>
      <trkpt lat="48.60882" lon="-4.50384">
        <ele>57.9</ele>
        <time>2011-06-20T10:29:58Z</time>
      </trkpt>
      <trkpt lat="48.60881" lon="-4.50385">
        <ele>57.9</ele>
        <time>2011-06-20T10:29:59Z</time>
      </trkpt>
      <trkpt lat="48.6088" lon="-4.50385">
        <ele>57.4</ele>
        <time>2011-06-20T10:30:00Z</time>
      </trkpt>
      <trkpt lat="48.60879" lon="-4.50386">
        <ele>59.2</ele>
        <time>2011-06-20T10:30:01Z</time>
      </trkpt>
      <trkpt lat="48.60877" lon="-4.50387">
        <ele>60.1</ele>
        <time>2011-06-20T10:30:02Z</time>
      </trkpt>
      <trkpt lat="48.60875" lon="-4.50387">
        <ele>59.9</ele>
        <time>2011-06-20T10:30:04Z</time>
      </trkpt>
      <trkpt lat="48.60874" lon="-4.50387">
        <ele>59.7</ele>
        <time>2011-06-20T10:30:05Z</time>
      </trkpt>
      <trkpt lat="48.60873" lon="-4.50388">
        <ele>59.5</ele>
        <time>2011-06-20T10:30:06Z</time>
      </trkpt>
      <trkpt lat="48.60872" lon="-4.50388">
        <ele>59.4</ele>
        <time>2011-06-20T10:30:07Z</time>
      </trkpt>
      <trkpt lat="48.6087" lon="-4.50389">
        <ele>59.1</ele>
        <time>2011-06-20T10:30:08Z</time>
      </trkpt>
      <trkpt lat="48.60869" lon="-4.50389">
        <ele>58.7</ele>
        <time>2011-06-20T10:30:09Z</time>
      </trkpt>
      <trkpt lat="48.60868" lon="-4.50389">
        <ele>57.3</ele>
        <time>2011-06-20T10:30:10Z</time>
      </trkpt>
      <trkpt lat="48.60867" lon="-4.50389">
        <ele>56.8</ele>
        <time>2011-06-20T10:30:11Z</time>
      </trkpt>
      <trkpt lat="48.60866" lon="-4.5039">
        <ele>57.4</ele>
        <time>2011-06-20T10:30:12Z</time>
      </trkpt>
      <trkpt lat="48.60865" lon="-4.50391">
        <ele>57.4</ele>
        <time>2011-06-20T10:30:14Z</time>
      </trkpt>
      <trkpt lat="48.60865" lon="-4.50391">
        <ele>57.4</ele>
        <time>2011-06-20T10:30:23Z</time>
      </trkpt>
      <trkpt lat="48.60854" lon="-4.504">
        <ele>55.2</ele>
        <time>2011-06-20T10:30:24Z</time>
      </trkpt>
      <trkpt lat="48.60853" lon="-4.50401">
        <ele>55.1</ele>
        <time>2011-06-20T10:30:25Z</time>
      </trkpt>
      <trkpt lat="48.60852" lon="-4.50401">
        <ele>55.6</ele>
        <time>2011-06-20T10:30:26Z</time>
      </trkpt>
      <trkpt lat="48.60851" lon="-4.50402">
        <ele>56.4</ele>
        <time>2011-06-20T10:30:27Z</time>
      </trkpt>
      <trkpt lat="48.60849" lon="-4.50402">
        <ele>56.2</ele>
        <time>2011-06-20T10:30:28Z</time>
      </trkpt>
      <trkpt lat="48.60848" lon="-4.50403">
        <ele>56.2</ele>
        <time>2011-06-20T10:30:29Z</time>
      </trkpt>
      <trkpt lat="48.60847" lon="-4.50404">
        <ele>56.3</ele>
        <time>2011-06-20T10:30:30Z</time>
      </trkpt>
      <trkpt lat="48.60846" lon="-4.50404">
        <ele>56.8</ele>
        <time>2011-06-20T10:30:31Z</time>
      </trkpt>
      <trkpt lat="48.60845" lon="-4.50405">
        <ele>57.1</ele>
        <time>2011-06-20T10:30:32Z</time>
      </trkpt>
      <trkpt lat="48.60844" lon="-4.50405">
        <ele>57.3</ele>
        <time>2011-06-20T10:30:34Z</time>
      </trkpt>
      <trkpt lat="48.60844" lon="-4.50405">
        <ele>57.3</ele>
        <time>2011-06-20T10:30:34Z</time>
      </trkpt>
      <trkpt lat="48.6084" lon="-4.50406">
        <ele>58.4</ele>
        <time>2011-06-20T10:30:35Z</time>
      </trkpt>
      <trkpt lat="48.6084" lon="-4.50406">
        <ele>58.4</ele>
        <time>2011-06-20T10:30:36Z</time>
      </trkpt>
      <trkpt lat="48.60838" lon="-4.50407">
        <ele>58.5</ele>
        <time>2011-06-20T10:30:37Z</time>
      </trkpt>
      <trkpt lat="48.60837" lon="-4.50408">
        <ele>58.4</ele>
        <time>2011-06-20T10:30:38Z</time>
      </trkpt>
      <trkpt lat="48.60836" lon="-4.50409">
        <ele>58.5</ele>
        <time>2011-06-20T10:30:39Z</time>
      </trkpt>
      <trkpt lat="48.60835" lon="-4.5041">
        <ele>59</ele>
        <time>2011-06-20T10:30:40Z</time>
      </trkpt>
      <trkpt lat="48.60834" lon="-4.50411">
        <ele>59.5</ele>
        <time>2011-06-20T10:30:42Z</time>
      </trkpt>
      <trkpt lat="48.60834" lon="-4.50411">
        <ele>59.5</ele>
        <time>2011-06-20T10:31:01Z</time>
      </trkpt>
      <trkpt lat="48.60815" lon="-4.5044">
        <ele>65.5</ele>
        <time>2011-06-20T10:31:03Z</time>
      </trkpt>
      <trkpt lat="48.60814" lon="-4.50441">
        <ele>65.6</ele>
        <time>2011-06-20T10:31:04Z</time>
      </trkpt>
      <trkpt lat="48.60814" lon="-4.50442">
        <ele>64.9</ele>
        <time>2011-06-20T10:31:05Z</time>
      </trkpt>
      <trkpt lat="48.60813" lon="-4.50443">
        <ele>64.7</ele>
        <time>2011-06-20T10:31:06Z</time>
      </trkpt>
      <trkpt lat="48.60813" lon="-4.50443">
        <ele>64.7</ele>
        <time>2011-06-20T10:31:33Z</time>
      </trkpt>
      <trkpt lat="48.60817" lon="-4.50478">
        <ele>56.2</ele>
        <time>2011-06-20T10:31:34Z</time>
      </trkpt>
      <trkpt lat="48.60817" lon="-4.5048">
        <ele>56.7</ele>
        <time>2011-06-20T10:31:35Z</time>
      </trkpt>
      <trkpt lat="48.60817" lon="-4.50482">
        <ele>56.3</ele>
        <time>2011-06-20T10:31:36Z</time>
      </trkpt>
      <trkpt lat="48.60818" lon="-4.50483">
        <ele>56.3</ele>
        <time>2011-06-20T10:31:38Z</time>
      </trkpt>
      <trkpt lat="48.60818" lon="-4.50483">
        <ele>56.3</ele>
        <time>2011-06-20T10:32:00Z</time>
      </trkpt>
      <trkpt lat="48.60815" lon="-4.5052">
        <ele>42.8</ele>
        <time>2011-06-20T10:32:02Z</time>
      </trkpt>
      <trkpt lat="48.60814" lon="-4.50521">
        <ele>43.4</ele>
        <time>2011-06-20T10:32:03Z</time>
      </trkpt>
      <trkpt lat="48.60814" lon="-4.50523">
        <ele>43.2</ele>
        <time>2011-06-20T10:32:04Z</time>
      </trkpt>
      <trkpt lat="48.60813" lon="-4.50524">
        <ele>43.7</ele>
        <time>2011-06-20T10:32:05Z</time>
      </trkpt>
      <trkpt lat="48.60813" lon="-4.50524">
        <ele>43.7</ele>
        <time>2011-06-20T10:32:27Z</time>
      </trkpt>
      <trkpt lat="48.60798" lon="-4.50558">
        <ele>43.9</ele>
        <time>2011-06-20T10:32:29Z</time>
      </trkpt>
      <trkpt lat="48.60798" lon="-4.50559">
        <ele>42.8</ele>
        <time>2011-06-20T10:32:30Z</time>
      </trkpt>
      <trkpt lat="48.60798" lon="-4.5056">
        <ele>41.1</ele>
        <time>2011-06-20T10:32:31Z</time>
      </trkpt>
      <trkpt lat="48.60798" lon="-4.50563">
        <ele>40.2</ele>
        <time>2011-06-20T10:32:32Z</time>
      </trkpt>
      <trkpt lat="48.60798" lon="-4.50563">
        <ele>40.2</ele>
        <time>2011-06-20T10:32:47Z</time>
      </trkpt>
      <trkpt lat="48.60781" lon="-4.50591">
        <ele>52.2</ele>
        <time>2011-06-20T10:32:49Z</time>
      </trkpt>
      <trkpt lat="48.60781" lon="-4.50592">
        <ele>52.5</ele>
        <time>2011-06-20T10:32:50Z</time>
      </trkpt>
      <trkpt lat="48.60781" lon="-4.50594">
        <ele>53.29</ele>
        <time>2011-06-20T10:32:51Z</time>
      </trkpt>
      <trkpt lat="48.60781" lon="-4.50594">
        <ele>53.29</ele>
        <time>2011-06-20T10:33:07Z</time>
      </trkpt>
      <trkpt lat="48.60791" lon="-4.50619">
        <ele>62.2</ele>
        <time>2011-06-20T10:33:09Z</time>
      </trkpt>
      <trkpt lat="48.60792" lon="-4.50621">
        <ele>63.1</ele>
        <time>2011-06-20T10:33:10Z</time>
      </trkpt>
      <trkpt lat="48.60793" lon="-4.50622">
        <ele>62.9</ele>
        <time>2011-06-20T10:33:11Z</time>
      </trkpt>
      <trkpt lat="48.60794" lon="-4.50623">
        <ele>62.7</ele>
        <time>2011-06-20T10:33:11Z</time>
      </trkpt>
      <trkpt lat="48.60795" lon="-4.50624">
        <ele>62.5</ele>
        <time>2011-06-20T10:33:12Z</time>
      </trkpt>
      <trkpt lat="48.60796" lon="-4.50626">
        <ele>62.7</ele>
        <time>2011-06-20T10:33:13Z</time>
      </trkpt>
      <trkpt lat="48.60797" lon="-4.50627">
        <ele>62.8</ele>
        <time>2011-06-20T10:33:14Z</time>
      </trkpt>
      <trkpt lat="48.60798" lon="-4.50628">
        <ele>62</ele>
        <time>2011-06-20T10:33:15Z</time>
      </trkpt>
      <trkpt lat="48.60799" lon="-4.5063">
        <ele>62.3</ele>
        <time>2011-06-20T10:33:16Z</time>
      </trkpt>
      <trkpt lat="48.608" lon="-4.50631">
        <ele>62.5</ele>
        <time>2011-06-20T10:33:17Z</time>
      </trkpt>
      <trkpt lat="48.608" lon="-4.50634">
        <ele>64.2</ele>
        <time>2011-06-20T10:33:18Z</time>
      </trkpt>
      <trkpt lat="48.608" lon="-4.50636">
        <ele>65.6</ele>
        <time>2011-06-20T10:33:19Z</time>
      </trkpt>
      <trkpt lat="48.60801" lon="-4.50637">
        <ele>65.2</ele>
        <time>2011-06-20T10:33:20Z</time>
      </trkpt>
      <trkpt lat="48.60803" lon="-4.50638">
        <ele>65.3</ele>
        <time>2011-06-20T10:33:21Z</time>
      </trkpt>
      <trkpt lat="48.60803" lon="-4.5064">
        <ele>66.3</ele>
        <time>2011-06-20T10:33:22Z</time>
      </trkpt>
      <trkpt lat="48.60804" lon="-4.50641">
        <ele>65.7</ele>
        <time>2011-06-20T10:33:23Z</time>
      </trkpt>
      <trkpt lat="48.60805" lon="-4.50642">
        <ele>66.2</ele>
        <time>2011-06-20T10:33:24Z</time>
      </trkpt>
      <trkpt lat="48.60805" lon="-4.50644">
        <ele>67</ele>
        <time>2011-06-20T10:33:25Z</time>
      </trkpt>
      <trkpt lat="48.60806" lon="-4.50645">
        <ele>67.6</ele>
        <time>2011-06-20T10:33:26Z</time>
      </trkpt>
      <trkpt lat="48.60807" lon="-4.50647">
        <ele>67.7</ele>
        <time>2011-06-20T10:33:27Z</time>
      </trkpt>
      <trkpt lat="48.60808" lon="-4.50648">
        <ele>68</ele>
        <time>2011-06-20T10:33:28Z</time>
      </trkpt>
      <trkpt lat="48.60809" lon="-4.50649">
        <ele>68</ele>
        <time>2011-06-20T10:33:29Z</time>
      </trkpt>
      <trkpt lat="48.6081" lon="-4.50649">
        <ele>67</ele>
        <time>2011-06-20T10:33:30Z</time>
      </trkpt>
      <trkpt lat="48.60811" lon="-4.5065">
        <ele>66.7</ele>
        <time>2011-06-20T10:33:31Z</time>
      </trkpt>
      <trkpt lat="48.60812" lon="-4.50652">
        <ele>67</ele>
        <time>2011-06-20T10:33:32Z</time>
      </trkpt>
      <trkpt lat="48.60813" lon="-4.50653">
        <ele>66.3</ele>
        <time>2011-06-20T10:33:33Z</time>
      </trkpt>
      <trkpt lat="48.60814" lon="-4.50654">
        <ele>65.9</ele>
        <time>2011-06-20T10:33:34Z</time>
      </trkpt>
      <trkpt lat="48.60815" lon="-4.50656">
        <ele>66.6</ele>
        <time>2011-06-20T10:33:35Z</time>
      </trkpt>
      <trkpt lat="48.60815" lon="-4.50657">
        <ele>66.8</ele>
        <time>2011-06-20T10:33:37Z</time>
      </trkpt>
      <trkpt lat="48.60815" lon="-4.50657">
        <ele>66.8</ele>
        <time>2011-06-20T10:33:38Z</time>
      </trkpt>
      <trkpt lat="48.60817" lon="-4.50661">
        <ele>66.9</ele>
        <time>2011-06-20T10:33:40Z</time>
      </trkpt>
      <trkpt lat="48.60818" lon="-4.50663">
        <ele>66.6</ele>
        <time>2011-06-20T10:33:41Z</time>
      </trkpt>
      <trkpt lat="48.60819" lon="-4.50664">
        <ele>66.9</ele>
        <time>2011-06-20T10:33:42Z</time>
      </trkpt>
      <trkpt lat="48.60819" lon="-4.50666">
        <ele>66.9</ele>
        <time>2011-06-20T10:33:43Z</time>
      </trkpt>
      <trkpt lat="48.6082" lon="-4.50667">
        <ele>66.6</ele>
        <time>2011-06-20T10:33:44Z</time>
      </trkpt>
      <trkpt lat="48.6082" lon="-4.50669">
        <ele>67.2</ele>
        <time>2011-06-20T10:33:45Z</time>
      </trkpt>
      <trkpt lat="48.6082" lon="-4.50669">
        <ele>67.2</ele>
        <time>2011-06-20T10:33:57Z</time>
      </trkpt>
      <trkpt lat="48.6083" lon="-4.5069">
        <ele>60.9</ele>
        <time>2011-06-20T10:33:59Z</time>
      </trkpt>
      <trkpt lat="48.60831" lon="-4.50692">
        <ele>60</ele>
        <time>2011-06-20T10:34:00Z</time>
      </trkpt>
      <trkpt lat="48.60832" lon="-4.50693">
        <ele>59.5</ele>
        <time>2011-06-20T10:34:01Z</time>
      </trkpt>
      <trkpt lat="48.60833" lon="-4.50694">
        <ele>59</ele>
        <time>2011-06-20T10:34:01Z</time>
      </trkpt>
      <trkpt lat="48.60834" lon="-4.50695">
        <ele>58.3</ele>
        <time>2011-06-20T10:34:02Z</time>
      </trkpt>
      <trkpt lat="48.60835" lon="-4.50697">
        <ele>57.8</ele>
        <time>2011-06-20T10:34:03Z</time>
      </trkpt>
      <trkpt lat="48.60835" lon="-4.50698">
        <ele>58.2</ele>
        <time>2011-06-20T10:34:04Z</time>
      </trkpt>
      <trkpt lat="48.60836" lon="-4.507">
        <ele>58.1</ele>
        <time>2011-06-20T10:34:05Z</time>
      </trkpt>
      <trkpt lat="48.60837" lon="-4.50701">
        <ele>57.7</ele>
        <time>2011-06-20T10:34:06Z</time>
      </trkpt>
      <trkpt lat="48.60838" lon="-4.50702">
        <ele>57.4</ele>
        <time>2011-06-20T10:34:07Z</time>
      </trkpt>
      <trkpt lat="48.60839" lon="-4.50703">
        <ele>57.4</ele>
        <time>2011-06-20T10:34:08Z</time>
      </trkpt>
      <trkpt lat="48.60839" lon="-4.50705">
        <ele>57.6</ele>
        <time>2011-06-20T10:34:09Z</time>
      </trkpt>
      <trkpt lat="48.6084" lon="-4.50706">
        <ele>57.6</ele>
        <time>2011-06-20T10:34:10Z</time>
      </trkpt>
      <trkpt lat="48.60841" lon="-4.50707">
        <ele>57.5</ele>
        <time>2011-06-20T10:34:11Z</time>
      </trkpt>
      <trkpt lat="48.60842" lon="-4.50708">
        <ele>57.4</ele>
        <time>2011-06-20T10:34:12Z</time>
      </trkpt>
      <trkpt lat="48.60842" lon="-4.5071">
        <ele>57.4</ele>
        <time>2011-06-20T10:34:13Z</time>
      </trkpt>
      <trkpt lat="48.60844" lon="-4.50711">
        <ele>56.9</ele>
        <time>2011-06-20T10:34:14Z</time>
      </trkpt>
      <trkpt lat="48.60844" lon="-4.50713">
        <ele>56.7</ele>
        <time>2011-06-20T10:34:15Z</time>
      </trkpt>
      <trkpt lat="48.60845" lon="-4.50715">
        <ele>56.8</ele>
        <time>2011-06-20T10:34:16Z</time>
      </trkpt>
      <trkpt lat="48.60846" lon="-4.50716">
        <ele>56.1</ele>
        <time>2011-06-20T10:34:17Z</time>
      </trkpt>
      <trkpt lat="48.60847" lon="-4.50717">
        <ele>56.3</ele>
        <time>2011-06-20T10:34:18Z</time>
      </trkpt>
      <trkpt lat="48.60847" lon="-4.50719">
        <ele>56.3</ele>
        <time>2011-06-20T10:34:19Z</time>
      </trkpt>
      <trkpt lat="48.60847" lon="-4.5072">
        <ele>56.2</ele>
        <time>2011-06-20T10:34:20Z</time>
      </trkpt>
      <trkpt lat="48.60848" lon="-4.50722">
        <ele>56.2</ele>
        <time>2011-06-20T10:34:21Z</time>
      </trkpt>
      <trkpt lat="48.60849" lon="-4.50723">
        <ele>56.5</ele>
        <time>2011-06-20T10:34:22Z</time>
      </trkpt>
      <trkpt lat="48.60849" lon="-4.50725">
        <ele>56.3</ele>
        <time>2011-06-20T10:34:23Z</time>
      </trkpt>
      <trkpt lat="48.60849" lon="-4.50727">
        <ele>55.9</ele>
        <time>2011-06-20T10:34:24Z</time>
      </trkpt>
      <trkpt lat="48.6085" lon="-4.50729">
        <ele>55.7</ele>
        <time>2011-06-20T10:34:25Z</time>
      </trkpt>
      <trkpt lat="48.60851" lon="-4.5073">
        <ele>56.3</ele>
        <time>2011-06-20T10:34:26Z</time>
      </trkpt>
      <trkpt lat="48.60851" lon="-4.50732">
        <ele>56</ele>
        <time>2011-06-20T10:34:28Z</time>
      </trkpt>
      <trkpt lat="48.60851" lon="-4.50732">
        <ele>56</ele>
        <time>2011-06-20T10:34:46Z</time>
      </trkpt>
      <trkpt lat="48.60848" lon="-4.50756">
        <ele>51.6</ele>
        <time>2011-06-20T10:34:48Z</time>
      </trkpt>
      <trkpt lat="48.60847" lon="-4.50757">
        <ele>51.4</ele>
        <time>2011-06-20T10:34:49Z</time>
      </trkpt>
      <trkpt lat="48.60846" lon="-4.50759">
        <ele>51.4</ele>
        <time>2011-06-20T10:34:50Z</time>
      </trkpt>
      <trkpt lat="48.60845" lon="-4.5076">
        <ele>51.7</ele>
        <time>2011-06-20T10:34:51Z</time>
      </trkpt>
      <trkpt lat="48.60844" lon="-4.50761">
        <ele>51.9</ele>
        <time>2011-06-20T10:34:52Z</time>
      </trkpt>
      <trkpt lat="48.60843" lon="-4.50762">
        <ele>52</ele>
        <time>2011-06-20T10:34:53Z</time>
      </trkpt>
      <trkpt lat="48.60842" lon="-4.50763">
        <ele>52.1</ele>
        <time>2011-06-20T10:34:53Z</time>
      </trkpt>
      <trkpt lat="48.60841" lon="-4.50764">
        <ele>51.9</ele>
        <time>2011-06-20T10:34:54Z</time>
      </trkpt>
      <trkpt lat="48.6084" lon="-4.50765">
        <ele>51.7</ele>
        <time>2011-06-20T10:34:55Z</time>
      </trkpt>
      <trkpt lat="48.60839" lon="-4.50766">
        <ele>51.7</ele>
        <time>2011-06-20T10:34:56Z</time>
      </trkpt>
      <trkpt lat="48.60838" lon="-4.50767">
        <ele>51.9</ele>
        <time>2011-06-20T10:34:57Z</time>
      </trkpt>
      <trkpt lat="48.60837" lon="-4.50768">
        <ele>52.1</ele>
        <time>2011-06-20T10:34:58Z</time>
      </trkpt>
      <trkpt lat="48.60836" lon="-4.50769">
        <ele>52</ele>
        <time>2011-06-20T10:34:59Z</time>
      </trkpt>
      <trkpt lat="48.60835" lon="-4.5077">
        <ele>52</ele>
        <time>2011-06-20T10:35:00Z</time>
      </trkpt>
      <trkpt lat="48.60834" lon="-4.50771">
        <ele>51.8</ele>
        <time>2011-06-20T10:35:01Z</time>
      </trkpt>
      <trkpt lat="48.60833" lon="-4.50772">
        <ele>52.1</ele>
        <time>2011-06-20T10:35:02Z</time>
      </trkpt>
      <trkpt lat="48.60832" lon="-4.50773">
        <ele>52.1</ele>
        <time>2011-06-20T10:35:03Z</time>
      </trkpt>
      <trkpt lat="48.60831" lon="-4.50775">
        <ele>52.1</ele>
        <time>2011-06-20T10:35:04Z</time>
      </trkpt>
      <trkpt lat="48.60831" lon="-4.50777">
        <ele>52.2</ele>
        <time>2011-06-20T10:35:05Z</time>
      </trkpt>
      <trkpt lat="48.6083" lon="-4.50778">
        <ele>52.2</ele>
        <time>2011-06-20T10:35:06Z</time>
      </trkpt>
      <trkpt lat="48.60829" lon="-4.50779">
        <ele>51.8</ele>
        <time>2011-06-20T10:35:07Z</time>
      </trkpt>
      <trkpt lat="48.60828" lon="-4.5078">
        <ele>51.4</ele>
        <time>2011-06-20T10:35:08Z</time>
      </trkpt>
      <trkpt lat="48.60827" lon="-4.50781">
        <ele>51</ele>
        <time>2011-06-20T10:35:09Z</time>
      </trkpt>
      <trkpt lat="48.60827" lon="-4.50782">
        <ele>50.8</ele>
        <time>2011-06-20T10:35:10Z</time>
      </trkpt>
      <trkpt lat="48.60826" lon="-4.50784">
        <ele>50.8</ele>
        <time>2011-06-20T10:35:11Z</time>
      </trkpt>
      <trkpt lat="48.60826" lon="-4.50785">
        <ele>51.1</ele>
        <time>2011-06-20T10:35:12Z</time>
      </trkpt>
      <trkpt lat="48.60825" lon="-4.50786">
        <ele>51.3</ele>
        <time>2011-06-20T10:35:13Z</time>
      </trkpt>
      <trkpt lat="48.60824" lon="-4.50788">
        <ele>51.4</ele>
        <time>2011-06-20T10:35:14Z</time>
      </trkpt>
      <trkpt lat="48.60823" lon="-4.50789">
        <ele>51.5</ele>
        <time>2011-06-20T10:35:15Z</time>
      </trkpt>
      <trkpt lat="48.60823" lon="-4.50791">
        <ele>51.6</ele>
        <time>2011-06-20T10:35:16Z</time>
      </trkpt>
      <trkpt lat="48.60822" lon="-4.50792">
        <ele>51.6</ele>
        <time>2011-06-20T10:35:17Z</time>
      </trkpt>
      <trkpt lat="48.60822" lon="-4.50794">
        <ele>52.3</ele>
        <time>2011-06-20T10:35:19Z</time>
      </trkpt>
      <trkpt lat="48.60822" lon="-4.50794">
        <ele>52.3</ele>
        <time>2011-06-20T10:35:25Z</time>
      </trkpt>
      <trkpt lat="48.6082" lon="-4.50802">
        <ele>52</ele>
        <time>2011-06-20T10:35:27Z</time>
      </trkpt>
      <trkpt lat="48.60819" lon="-4.50803">
        <ele>52.1</ele>
        <time>2011-06-20T10:35:28Z</time>
      </trkpt>
      <trkpt lat="48.60818" lon="-4.50805">
        <ele>52.1</ele>
        <time>2011-06-20T10:35:29Z</time>
      </trkpt>
      <trkpt lat="48.60818" lon="-4.50807">
        <ele>52.2</ele>
        <time>2011-06-20T10:35:30Z</time>
      </trkpt>
      <trkpt lat="48.60818" lon="-4.50809">
        <ele>52.1</ele>
        <time>2011-06-20T10:35:31Z</time>
      </trkpt>
      <trkpt lat="48.60818" lon="-4.50811">
        <ele>52.1</ele>
        <time>2011-06-20T10:35:31Z</time>
      </trkpt>
      <trkpt lat="48.60818" lon="-4.50813">
        <ele>52.2</ele>
        <time>2011-06-20T10:35:32Z</time>
      </trkpt>
      <trkpt lat="48.60819" lon="-4.50815">
        <ele>52.3</ele>
        <time>2011-06-20T10:35:33Z</time>
      </trkpt>
      <trkpt lat="48.6082" lon="-4.50817">
        <ele>52.6</ele>
        <time>2011-06-20T10:35:34Z</time>
      </trkpt>
      <trkpt lat="48.6082" lon="-4.50819">
        <ele>52.6</ele>
        <time>2011-06-20T10:35:35Z</time>
      </trkpt>
      <trkpt lat="48.6082" lon="-4.5082">
        <ele>52.5</ele>
        <time>2011-06-20T10:35:36Z</time>
      </trkpt>
      <trkpt lat="48.60821" lon="-4.50822">
        <ele>52.5</ele>
        <time>2011-06-20T10:35:37Z</time>
      </trkpt>
      <trkpt lat="48.60821" lon="-4.50824">
        <ele>52.5</ele>
        <time>2011-06-20T10:35:38Z</time>
      </trkpt>
      <trkpt lat="48.60821" lon="-4.50826">
        <ele>52.5</ele>
        <time>2011-06-20T10:35:39Z</time>
      </trkpt>
      <trkpt lat="48.60822" lon="-4.50828">
        <ele>52.9</ele>
        <time>2011-06-20T10:35:40Z</time>
      </trkpt>
      <trkpt lat="48.60823" lon="-4.5083">
        <ele>52.7</ele>
        <time>2011-06-20T10:35:41Z</time>
      </trkpt>
      <trkpt lat="48.60823" lon="-4.50832">
        <ele>52.8</ele>
        <time>2011-06-20T10:35:42Z</time>
      </trkpt>
      <trkpt lat="48.60824" lon="-4.50833">
        <ele>52.9</ele>
        <time>2011-06-20T10:35:43Z</time>
      </trkpt>
      <trkpt lat="48.60824" lon="-4.50835">
        <ele>52.8</ele>
        <time>2011-06-20T10:35:44Z</time>
      </trkpt>
      <trkpt lat="48.60824" lon="-4.50837">
        <ele>52.6</ele>
        <time>2011-06-20T10:35:45Z</time>
      </trkpt>
      <trkpt lat="48.60825" lon="-4.50839">
        <ele>52.7</ele>
        <time>2011-06-20T10:35:46Z</time>
      </trkpt>
      <trkpt lat="48.60825" lon="-4.5084">
        <ele>52.5</ele>
        <time>2011-06-20T10:35:47Z</time>
      </trkpt>
      <trkpt lat="48.60826" lon="-4.50842">
        <ele>52.6</ele>
        <time>2011-06-20T10:35:48Z</time>
      </trkpt>
      <trkpt lat="48.60826" lon="-4.50843">
        <ele>52.6</ele>
        <time>2011-06-20T10:35:49Z</time>
      </trkpt>
      <trkpt lat="48.60826" lon="-4.50845">
        <ele>52.7</ele>
        <time>2011-06-20T10:35:51Z</time>
      </trkpt>
      <trkpt lat="48.60826" lon="-4.50845">
        <ele>52.7</ele>
        <time>2011-06-20T10:36:04Z</time>
      </trkpt>
      <trkpt lat="48.60831" lon="-4.50873">
        <ele>50</ele>
        <time>2011-06-20T10:36:06Z</time>
      </trkpt>
      <trkpt lat="48.60831" lon="-4.50875">
        <ele>49.7</ele>
        <time>2011-06-20T10:36:07Z</time>
      </trkpt>
      <trkpt lat="48.60832" lon="-4.50877">
        <ele>49.4</ele>
        <time>2011-06-20T10:36:08Z</time>
      </trkpt>
      <trkpt lat="48.60833" lon="-4.50878">
        <ele>49.3</ele>
        <time>2011-06-20T10:36:08Z</time>
      </trkpt>
      <trkpt lat="48.60833" lon="-4.5088">
        <ele>49.2</ele>
        <time>2011-06-20T10:36:09Z</time>
      </trkpt>
      <trkpt lat="48.60834" lon="-4.50882">
        <ele>49.1</ele>
        <time>2011-06-20T10:36:10Z</time>
      </trkpt>
      <trkpt lat="48.60834" lon="-4.50884">
        <ele>48.9</ele>
        <time>2011-06-20T10:36:11Z</time>
      </trkpt>
      <trkpt lat="48.60834" lon="-4.50885">
        <ele>48.8</ele>
        <time>2011-06-20T10:36:12Z</time>
      </trkpt>
      <trkpt lat="48.60835" lon="-4.50887">
        <ele>48.7</ele>
        <time>2011-06-20T10:36:13Z</time>
      </trkpt>
      <trkpt lat="48.60835" lon="-4.50889">
        <ele>48.6</ele>
        <time>2011-06-20T10:36:14Z</time>
      </trkpt>
      <trkpt lat="48.60835" lon="-4.50891">
        <ele>48.4</ele>
        <time>2011-06-20T10:36:15Z</time>
      </trkpt>
      <trkpt lat="48.60835" lon="-4.50893">
        <ele>48.2</ele>
        <time>2011-06-20T10:36:16Z</time>
      </trkpt>
      <trkpt lat="48.60836" lon="-4.50895">
        <ele>48.2</ele>
        <time>2011-06-20T10:36:17Z</time>
      </trkpt>
      <trkpt lat="48.60836" lon="-4.50897">
        <ele>48.1</ele>
        <time>2011-06-20T10:36:18Z</time>
      </trkpt>
      <trkpt lat="48.60836" lon="-4.50898">
        <ele>48.1</ele>
        <time>2011-06-20T10:36:19Z</time>
      </trkpt>
      <trkpt lat="48.60836" lon="-4.509">
        <ele>47.9</ele>
        <time>2011-06-20T10:36:20Z</time>
      </trkpt>
      <trkpt lat="48.60837" lon="-4.50902">
        <ele>47.7</ele>
        <time>2011-06-20T10:36:21Z</time>
      </trkpt>
      <trkpt lat="48.60837" lon="-4.50904">
        <ele>47.6</ele>
        <time>2011-06-20T10:36:23Z</time>
      </trkpt>
      <trkpt lat="48.60837" lon="-4.50904">
        <ele>47.6</ele>
        <time>2011-06-20T10:36:30Z</time>
      </trkpt>
      <trkpt lat="48.60837" lon="-4.5092">
        <ele>47.6</ele>
        <time>2011-06-20T10:36:32Z</time>
      </trkpt>
      <trkpt lat="48.60837" lon="-4.50922">
        <ele>47.2</ele>
        <time>2011-06-20T10:36:33Z</time>
      </trkpt>
      <trkpt lat="48.60838" lon="-4.50923">
        <ele>47.3</ele>
        <time>2011-06-20T10:36:34Z</time>
      </trkpt>
      <trkpt lat="48.60838" lon="-4.50925">
        <ele>47.4</ele>
        <time>2011-06-20T10:36:35Z</time>
      </trkpt>
      <trkpt lat="48.60838" lon="-4.50925">
        <ele>47.4</ele>
        <time>2011-06-20T10:36:36Z</time>
      </trkpt>
      <trkpt lat="48.60839" lon="-4.50931">
        <ele>47.5</ele>
        <time>2011-06-20T10:36:38Z</time>
      </trkpt>
      <trkpt lat="48.6084" lon="-4.50932">
        <ele>47.4</ele>
        <time>2011-06-20T10:36:39Z</time>
      </trkpt>
      <trkpt lat="48.6084" lon="-4.50934">
        <ele>47.5</ele>
        <time>2011-06-20T10:36:40Z</time>
      </trkpt>
      <trkpt lat="48.6084" lon="-4.50936">
        <ele>47.3</ele>
        <time>2011-06-20T10:36:41Z</time>
      </trkpt>
      <trkpt lat="48.60841" lon="-4.50938">
        <ele>47.5</ele>
        <time>2011-06-20T10:36:42Z</time>
      </trkpt>
      <trkpt lat="48.60841" lon="-4.5094">
        <ele>47.4</ele>
        <time>2011-06-20T10:36:44Z</time>
      </trkpt>
      <trkpt lat="48.60841" lon="-4.50942">
        <ele>47.3</ele>
        <time>2011-06-20T10:36:45Z</time>
      </trkpt>
      <trkpt lat="48.60842" lon="-4.50943">
        <ele>47.3</ele>
        <time>2011-06-20T10:36:45Z</time>
      </trkpt>
      <trkpt lat="48.60841" lon="-4.50945">
        <ele>47.4</ele>
        <time>2011-06-20T10:36:47Z</time>
      </trkpt>
      <trkpt lat="48.60841" lon="-4.50945">
        <ele>47.4</ele>
        <time>2011-06-20T10:36:52Z</time>
      </trkpt>
      <trkpt lat="48.60838" lon="-4.50956">
        <ele>47.6</ele>
        <time>2011-06-20T10:36:53Z</time>
      </trkpt>
      <trkpt lat="48.60837" lon="-4.50957">
        <ele>47.6</ele>
        <time>2011-06-20T10:36:54Z</time>
      </trkpt>
      <trkpt lat="48.60837" lon="-4.50959">
        <ele>47.6</ele>
        <time>2011-06-20T10:36:55Z</time>
      </trkpt>
      <trkpt lat="48.60837" lon="-4.50961">
        <ele>47.6</ele>
        <time>2011-06-20T10:36:55Z</time>
      </trkpt>
      <trkpt lat="48.60836" lon="-4.50963">
        <ele>47.5</ele>
        <time>2011-06-20T10:36:57Z</time>
      </trkpt>
      <trkpt lat="48.60836" lon="-4.50965">
        <ele>47.4</ele>
        <time>2011-06-20T10:36:58Z</time>
      </trkpt>
      <trkpt lat="48.60835" lon="-4.50966">
        <ele>47.4</ele>
        <time>2011-06-20T10:36:59Z</time>
      </trkpt>
      <trkpt lat="48.60835" lon="-4.50966">
        <ele>47.4</ele>
        <time>2011-06-20T10:36:59Z</time>
      </trkpt>
      <trkpt lat="48.60835" lon="-4.50968">
        <ele>47.6</ele>
        <time>2011-06-20T10:37:01Z</time>
      </trkpt>
      <trkpt lat="48.60835" lon="-4.50969">
        <ele>47.7</ele>
        <time>2011-06-20T10:37:02Z</time>
      </trkpt>
      <trkpt lat="48.60834" lon="-4.5097">
        <ele>47.8</ele>
        <time>2011-06-20T10:37:02Z</time>
      </trkpt>
      <trkpt lat="48.60834" lon="-4.50971">
        <ele>48.1</ele>
        <time>2011-06-20T10:37:41Z</time>
      </trkpt>
      <trkpt lat="48.60846" lon="-4.5103">
        <ele>47.8</ele>
        <time>2011-06-20T10:46:54Z</time>
      </trkpt>
      <trkpt lat="48.60827" lon="-4.51006">
        <ele>51.1</ele>
        <time>2011-06-20T10:46:55Z</time>
      </trkpt>
      <trkpt lat="48.60828" lon="-4.51028">
        <ele>34.7</ele>
        <time>2011-06-20T10:46:56Z</time>
      </trkpt>
      <trkpt lat="48.60827" lon="-4.50999">
        <ele>49.2</ele>
        <time>2011-06-20T10:46:57Z</time>
      </trkpt>
      <trkpt lat="48.60828" lon="-4.50996">
        <ele>49.3</ele>
        <time>2011-06-20T10:46:58Z</time>
      </trkpt>
      <trkpt lat="48.60827" lon="-4.50995">
        <ele>51.6</ele>
        <time>2011-06-20T10:46:59Z</time>
      </trkpt>
      <trkpt lat="48.60828" lon="-4.50998">
        <ele>50.3</ele>
        <time>2011-06-20T10:47:00Z</time>
      </trkpt>
      <trkpt lat="48.60829" lon="-4.50998">
        <ele>49.3</ele>
        <time>2011-06-20T10:47:01Z</time>
      </trkpt>
      <trkpt lat="48.60827" lon="-4.50997">
        <ele>50</ele>
        <time>2011-06-20T10:47:03Z</time>
      </trkpt>
      <trkpt lat="48.60827" lon="-4.50997">
        <ele>50</ele>
        <time>2011-06-20T10:47:36Z</time>
      </trkpt>
      <trkpt lat="48.60812" lon="-4.50971">
        <ele>55.6</ele>
        <time>2011-06-20T10:47:37Z</time>
      </trkpt>
      <trkpt lat="48.60811" lon="-4.50972">
        <ele>55.2</ele>
        <time>2011-06-20T10:47:38Z</time>
      </trkpt>
      <trkpt lat="48.6081" lon="-4.50972">
        <ele>54.9</ele>
        <time>2011-06-20T10:47:39Z</time>
      </trkpt>
      <trkpt lat="48.60809" lon="-4.50973">
        <ele>54.6</ele>
        <time>2011-06-20T10:47:41Z</time>
      </trkpt>
      <trkpt lat="48.60809" lon="-4.50973">
        <ele>54.6</ele>
        <time>2011-06-20T10:48:00Z</time>
      </trkpt>
      <trkpt lat="48.60783" lon="-4.50962">
        <ele>56.9</ele>
        <time>2011-06-20T10:48:01Z</time>
      </trkpt>
      <trkpt lat="48.60782" lon="-4.50961">
        <ele>56.2</ele>
        <time>2011-06-20T10:48:02Z</time>
      </trkpt>
      <trkpt lat="48.60781" lon="-4.5096">
        <ele>55.7</ele>
        <time>2011-06-20T10:48:03Z</time>
      </trkpt>
      <trkpt lat="48.60781" lon="-4.5096">
        <ele>55.2</ele>
        <time>2011-06-20T10:48:05Z</time>
      </trkpt>
      <trkpt lat="48.60781" lon="-4.5096">
        <ele>55.2</ele>
        <time>2011-06-20T10:48:24Z</time>
      </trkpt>
      <trkpt lat="48.60758" lon="-4.50941">
        <ele>57</ele>
        <time>2011-06-20T10:48:25Z</time>
      </trkpt>
      <trkpt lat="48.60757" lon="-4.5094">
        <ele>57.3</ele>
        <time>2011-06-20T10:48:26Z</time>
      </trkpt>
      <trkpt lat="48.60756" lon="-4.50939">
        <ele>57.8</ele>
        <time>2011-06-20T10:48:27Z</time>
      </trkpt>
      <trkpt lat="48.60754" lon="-4.50937">
        <ele>58.4</ele>
        <time>2011-06-20T10:48:28Z</time>
      </trkpt>
      <trkpt lat="48.60753" lon="-4.50936">
        <ele>59.5</ele>
        <time>2011-06-20T10:48:29Z</time>
      </trkpt>
      <trkpt lat="48.60752" lon="-4.50934">
        <ele>59.9</ele>
        <time>2011-06-20T10:48:30Z</time>
      </trkpt>
      <trkpt lat="48.60752" lon="-4.50932">
        <ele>59.6</ele>
        <time>2011-06-20T10:48:32Z</time>
      </trkpt>
      <trkpt lat="48.60752" lon="-4.50932">
        <ele>59.6</ele>
        <time>2011-06-20T10:49:04Z</time>
      </trkpt>
      <trkpt lat="48.60753" lon="-4.50893">
        <ele>60.9</ele>
        <time>2011-06-20T10:49:05Z</time>
      </trkpt>
      <trkpt lat="48.60753" lon="-4.50891">
        <ele>61.3</ele>
        <time>2011-06-20T10:49:06Z</time>
      </trkpt>
      <trkpt lat="48.60752" lon="-4.50889">
        <ele>61.8</ele>
        <time>2011-06-20T10:49:07Z</time>
      </trkpt>
      <trkpt lat="48.60752" lon="-4.50888">
        <ele>61.6</ele>
        <time>2011-06-20T10:49:08Z</time>
      </trkpt>
      <trkpt lat="48.60752" lon="-4.50886">
        <ele>61.4</ele>
        <time>2011-06-20T10:49:09Z</time>
      </trkpt>
      <trkpt lat="48.60752" lon="-4.50885">
        <ele>61.6</ele>
        <time>2011-06-20T10:49:11Z</time>
      </trkpt>
      <trkpt lat="48.60752" lon="-4.50885">
        <ele>61.6</ele>
        <time>2011-06-20T10:49:11Z</time>
      </trkpt>
      <trkpt lat="48.60752" lon="-4.50881">
        <ele>61.8</ele>
        <time>2011-06-20T10:49:12Z</time>
      </trkpt>
      <trkpt lat="48.60752" lon="-4.50879">
        <ele>62</ele>
        <time>2011-06-20T10:49:13Z</time>
      </trkpt>
      <trkpt lat="48.60753" lon="-4.50878">
        <ele>62.4</ele>
        <time>2011-06-20T10:49:14Z</time>
      </trkpt>
      <trkpt lat="48.60754" lon="-4.50876">
        <ele>62.9</ele>
        <time>2011-06-20T10:49:15Z</time>
      </trkpt>
      <trkpt lat="48.60754" lon="-4.50875">
        <ele>63.4</ele>
        <time>2011-06-20T10:49:17Z</time>
      </trkpt>
      <trkpt lat="48.60754" lon="-4.50875">
        <ele>63.4</ele>
        <time>2011-06-20T10:49:32Z</time>
      </trkpt>
      <trkpt lat="48.60735" lon="-4.50847">
        <ele>54.7</ele>
        <time>2011-06-20T10:49:33Z</time>
      </trkpt>
      <trkpt lat="48.60734" lon="-4.50846">
        <ele>54</ele>
        <time>2011-06-20T10:49:34Z</time>
      </trkpt>
      <trkpt lat="48.60734" lon="-4.50845">
        <ele>53.6</ele>
        <time>2011-06-20T10:49:35Z</time>
      </trkpt>
      <trkpt lat="48.60733" lon="-4.50843">
        <ele>53.6</ele>
        <time>2011-06-20T10:49:37Z</time>
      </trkpt>
      <trkpt lat="48.60733" lon="-4.50843">
        <ele>53.6</ele>
        <time>2011-06-20T10:49:42Z</time>
      </trkpt>
      <trkpt lat="48.60725" lon="-4.50837">
        <ele>59.4</ele>
        <time>2011-06-20T10:49:43Z</time>
      </trkpt>
      <trkpt lat="48.60724" lon="-4.50835">
        <ele>59.7</ele>
        <time>2011-06-20T10:49:44Z</time>
      </trkpt>
      <trkpt lat="48.60724" lon="-4.50833">
        <ele>59.7</ele>
        <time>2011-06-20T10:49:45Z</time>
      </trkpt>
      <trkpt lat="48.60723" lon="-4.50831">
        <ele>59.8</ele>
        <time>2011-06-20T10:49:46Z</time>
      </trkpt>
      <trkpt lat="48.60723" lon="-4.5083">
        <ele>60.1</ele>
        <time>2011-06-20T10:49:47Z</time>
      </trkpt>
      <trkpt lat="48.60723" lon="-4.50828">
        <ele>60.1</ele>
        <time>2011-06-20T10:49:49Z</time>
      </trkpt>
      <trkpt lat="48.60723" lon="-4.50828">
        <ele>60.1</ele>
        <time>2011-06-20T10:49:55Z</time>
      </trkpt>
      <trkpt lat="48.60722" lon="-4.50814">
        <ele>58.1</ele>
        <time>2011-06-20T10:49:56Z</time>
      </trkpt>
      <trkpt lat="48.60723" lon="-4.50812">
        <ele>57.6</ele>
        <time>2011-06-20T10:49:57Z</time>
      </trkpt>
      <trkpt lat="48.60723" lon="-4.5081">
        <ele>57.1</ele>
        <time>2011-06-20T10:49:58Z</time>
      </trkpt>
      <trkpt lat="48.60723" lon="-4.50808">
        <ele>57.2</ele>
        <time>2011-06-20T10:49:59Z</time>
      </trkpt>
      <trkpt lat="48.60723" lon="-4.50807">
        <ele>57.2</ele>
        <time>2011-06-20T10:50:00Z</time>
      </trkpt>
      <trkpt lat="48.60723" lon="-4.50805">
        <ele>57</ele>
        <time>2011-06-20T10:50:01Z</time>
      </trkpt>
      <trkpt lat="48.60723" lon="-4.50803">
        <ele>57.2</ele>
        <time>2011-06-20T10:50:02Z</time>
      </trkpt>
      <trkpt lat="48.60723" lon="-4.50802">
        <ele>56.9</ele>
        <time>2011-06-20T10:50:03Z</time>
      </trkpt>
      <trkpt lat="48.60723" lon="-4.508">
        <ele>57</ele>
        <time>2011-06-20T10:50:04Z</time>
      </trkpt>
      <trkpt lat="48.60723" lon="-4.50799">
        <ele>57</ele>
        <time>2011-06-20T10:50:06Z</time>
      </trkpt>
      <trkpt lat="48.60723" lon="-4.50799">
        <ele>57</ele>
        <time>2011-06-20T10:50:10Z</time>
      </trkpt>
      <trkpt lat="48.60722" lon="-4.50788">
        <ele>57.6</ele>
        <time>2011-06-20T10:50:11Z</time>
      </trkpt>
      <trkpt lat="48.6072" lon="-4.50786">
        <ele>57.3</ele>
        <time>2011-06-20T10:50:12Z</time>
      </trkpt>
      <trkpt lat="48.60719" lon="-4.50784">
        <ele>56.8</ele>
        <time>2011-06-20T10:50:13Z</time>
      </trkpt>
      <trkpt lat="48.60717" lon="-4.50783">
        <ele>56.7</ele>
        <time>2011-06-20T10:50:14Z</time>
      </trkpt>
      <trkpt lat="48.60716" lon="-4.50783">
        <ele>56.4</ele>
        <time>2011-06-20T10:50:15Z</time>
      </trkpt>
      <trkpt lat="48.60714" lon="-4.50783">
        <ele>56.5</ele>
        <time>2011-06-20T10:50:16Z</time>
      </trkpt>
      <trkpt lat="48.60713" lon="-4.50783">
        <ele>56.1</ele>
        <time>2011-06-20T10:50:18Z</time>
      </trkpt>
      <trkpt lat="48.60713" lon="-4.50783">
        <ele>56.1</ele>
        <time>2011-06-20T10:50:46Z</time>
      </trkpt>
      <trkpt lat="48.60686" lon="-4.50772">
        <ele>62.2</ele>
        <time>2011-06-20T10:50:48Z</time>
      </trkpt>
      <trkpt lat="48.60685" lon="-4.50771">
        <ele>62.6</ele>
        <time>2011-06-20T10:50:49Z</time>
      </trkpt>
      <trkpt lat="48.60685" lon="-4.5077">
        <ele>62.6</ele>
        <time>2011-06-20T10:50:51Z</time>
      </trkpt>
      <trkpt lat="48.60685" lon="-4.5077">
        <ele>62.6</ele>
        <time>2011-06-20T10:51:10Z</time>
      </trkpt>
      <trkpt lat="48.60668" lon="-4.50736">
        <ele>72.9</ele>
        <time>2011-06-20T10:51:11Z</time>
      </trkpt>
      <trkpt lat="48.60667" lon="-4.50735">
        <ele>73.5</ele>
        <time>2011-06-20T10:51:12Z</time>
      </trkpt>
      <trkpt lat="48.60666" lon="-4.50733">
        <ele>75.5</ele>
        <time>2011-06-20T10:51:13Z</time>
      </trkpt>
      <trkpt lat="48.60665" lon="-4.50731">
        <ele>76.9</ele>
        <time>2011-06-20T10:51:15Z</time>
      </trkpt>
      <trkpt lat="48.60665" lon="-4.50731">
        <ele>76.9</ele>
        <time>2011-06-20T10:51:28Z</time>
      </trkpt>
      <trkpt lat="48.60647" lon="-4.50699">
        <ele>79.9</ele>
        <time>2011-06-20T10:51:29Z</time>
      </trkpt>
      <trkpt lat="48.60646" lon="-4.50698">
        <ele>80</ele>
        <time>2011-06-20T10:51:30Z</time>
      </trkpt>
      <trkpt lat="48.60645" lon="-4.50698">
        <ele>80.1</ele>
        <time>2011-06-20T10:51:31Z</time>
      </trkpt>
      <trkpt lat="48.60643" lon="-4.50697">
        <ele>79.2</ele>
        <time>2011-06-20T10:51:32Z</time>
      </trkpt>
      <trkpt lat="48.60642" lon="-4.50696">
        <ele>78.3</ele>
        <time>2011-06-20T10:51:33Z</time>
      </trkpt>
      <trkpt lat="48.60641" lon="-4.50695">
        <ele>78</ele>
        <time>2011-06-20T10:51:34Z</time>
      </trkpt>
      <trkpt lat="48.6064" lon="-4.50694">
        <ele>78.4</ele>
        <time>2011-06-20T10:51:35Z</time>
      </trkpt>
      <trkpt lat="48.60638" lon="-4.50693">
        <ele>78.2</ele>
        <time>2011-06-20T10:51:36Z</time>
      </trkpt>
      <trkpt lat="48.60637" lon="-4.50693">
        <ele>78.1</ele>
        <time>2011-06-20T10:51:37Z</time>
      </trkpt>
      <trkpt lat="48.60636" lon="-4.50693">
        <ele>78.1</ele>
        <time>2011-06-20T10:51:38Z</time>
      </trkpt>
      <trkpt lat="48.60635" lon="-4.50693">
        <ele>78</ele>
        <time>2011-06-20T10:51:39Z</time>
      </trkpt>
      <trkpt lat="48.60633" lon="-4.50693">
        <ele>78.5</ele>
        <time>2011-06-20T10:51:40Z</time>
      </trkpt>
      <trkpt lat="48.60633" lon="-4.50694">
        <ele>78.7</ele>
        <time>2011-06-20T10:51:41Z</time>
      </trkpt>
      <trkpt lat="48.60632" lon="-4.50696">
        <ele>78</ele>
        <time>2011-06-20T10:51:42Z</time>
      </trkpt>
      <trkpt lat="48.60632" lon="-4.50699">
        <ele>77.8</ele>
        <time>2011-06-20T10:51:43Z</time>
      </trkpt>
      <trkpt lat="48.60631" lon="-4.50703">
        <ele>75.8</ele>
        <time>2011-06-20T10:51:44Z</time>
      </trkpt>
      <trkpt lat="48.6063" lon="-4.50707">
        <ele>75.5</ele>
        <time>2011-06-20T10:51:45Z</time>
      </trkpt>
      <trkpt lat="48.6063" lon="-4.50711">
        <ele>74.6</ele>
        <time>2011-06-20T10:51:46Z</time>
      </trkpt>
      <trkpt lat="48.60629" lon="-4.50714">
        <ele>74.5</ele>
        <time>2011-06-20T10:51:47Z</time>
      </trkpt>
      <trkpt lat="48.6063" lon="-4.50717">
        <ele>74.5</ele>
        <time>2011-06-20T10:51:48Z</time>
      </trkpt>
      <trkpt lat="48.60631" lon="-4.50721">
        <ele>74.1</ele>
        <time>2011-06-20T10:51:50Z</time>
      </trkpt>
      <trkpt lat="48.60631" lon="-4.50721">
        <ele>74.1</ele>
        <time>2011-06-20T10:51:56Z</time>
      </trkpt>
      <trkpt lat="48.60623" lon="-4.5073">
        <ele>73.8</ele>
        <time>2011-06-20T10:51:57Z</time>
      </trkpt>
      <trkpt lat="48.60621" lon="-4.50731">
        <ele>73.1</ele>
        <time>2011-06-20T10:51:58Z</time>
      </trkpt>
      <trkpt lat="48.6062" lon="-4.50731">
        <ele>71.9</ele>
        <time>2011-06-20T10:51:59Z</time>
      </trkpt>
      <trkpt lat="48.60618" lon="-4.50732">
        <ele>72.4</ele>
        <time>2011-06-20T10:52:00Z</time>
      </trkpt>
      <trkpt lat="48.60617" lon="-4.50732">
        <ele>72.9</ele>
        <time>2011-06-20T10:52:01Z</time>
      </trkpt>
      <trkpt lat="48.60615" lon="-4.50731">
        <ele>71.4</ele>
        <time>2011-06-20T10:52:02Z</time>
      </trkpt>
      <trkpt lat="48.60614" lon="-4.50732">
        <ele>70.7</ele>
        <time>2011-06-20T10:52:03Z</time>
      </trkpt>
      <trkpt lat="48.60613" lon="-4.50732">
        <ele>69.1</ele>
        <time>2011-06-20T10:52:04Z</time>
      </trkpt>
      <trkpt lat="48.60612" lon="-4.50734">
        <ele>69.7</ele>
        <time>2011-06-20T10:52:05Z</time>
      </trkpt>
      <trkpt lat="48.60611" lon="-4.50736">
        <ele>69.6</ele>
        <time>2011-06-20T10:52:06Z</time>
      </trkpt>
      <trkpt lat="48.6061" lon="-4.50739">
        <ele>69.4</ele>
        <time>2011-06-20T10:52:07Z</time>
      </trkpt>
      <trkpt lat="48.6061" lon="-4.50741">
        <ele>69.3</ele>
        <time>2011-06-20T10:52:08Z</time>
      </trkpt>
      <trkpt lat="48.60609" lon="-4.50743">
        <ele>69</ele>
        <time>2011-06-20T10:52:09Z</time>
      </trkpt>
      <trkpt lat="48.60609" lon="-4.50745">
        <ele>69.5</ele>
        <time>2011-06-20T10:52:10Z</time>
      </trkpt>
      <trkpt lat="48.60608" lon="-4.50747">
        <ele>69.3</ele>
        <time>2011-06-20T10:52:11Z</time>
      </trkpt>
      <trkpt lat="48.60609" lon="-4.5075">
        <ele>69.5</ele>
        <time>2011-06-20T10:52:12Z</time>
      </trkpt>
      <trkpt lat="48.60609" lon="-4.50752">
        <ele>69.4</ele>
        <time>2011-06-20T10:52:13Z</time>
      </trkpt>
      <trkpt lat="48.60609" lon="-4.50754">
        <ele>68.8</ele>
        <time>2011-06-20T10:52:14Z</time>
      </trkpt>
      <trkpt lat="48.60609" lon="-4.50756">
        <ele>68.6</ele>
        <time>2011-06-20T10:52:15Z</time>
      </trkpt>
      <trkpt lat="48.60609" lon="-4.50758">
        <ele>69</ele>
        <time>2011-06-20T10:52:16Z</time>
      </trkpt>
      <trkpt lat="48.60609" lon="-4.5076">
        <ele>68.6</ele>
        <time>2011-06-20T10:52:17Z</time>
      </trkpt>
      <trkpt lat="48.6061" lon="-4.50762">
        <ele>68.9</ele>
        <time>2011-06-20T10:52:19Z</time>
      </trkpt>
      <trkpt lat="48.6061" lon="-4.50762">
        <ele>68.9</ele>
        <time>2011-06-20T10:52:19Z</time>
      </trkpt>
      <trkpt lat="48.60612" lon="-4.50767">
        <ele>69.4</ele>
        <time>2011-06-20T10:52:20Z</time>
      </trkpt>
      <trkpt lat="48.60613" lon="-4.50769">
        <ele>69.6</ele>
        <time>2011-06-20T10:52:21Z</time>
      </trkpt>
      <trkpt lat="48.60614" lon="-4.50772">
        <ele>70.2</ele>
        <time>2011-06-20T10:52:22Z</time>
      </trkpt>
      <trkpt lat="48.60613" lon="-4.50774">
        <ele>69.8</ele>
        <time>2011-06-20T10:52:23Z</time>
      </trkpt>
      <trkpt lat="48.60612" lon="-4.50775">
        <ele>68.4</ele>
        <time>2011-06-20T10:52:24Z</time>
      </trkpt>
      <trkpt lat="48.60611" lon="-4.50777">
        <ele>67.9</ele>
        <time>2011-06-20T10:52:25Z</time>
      </trkpt>
      <trkpt lat="48.6061" lon="-4.50779">
        <ele>67.8</ele>
        <time>2011-06-20T10:52:26Z</time>
      </trkpt>
      <trkpt lat="48.60609" lon="-4.50781">
        <ele>68.3</ele>
        <time>2011-06-20T10:52:27Z</time>
      </trkpt>
      <trkpt lat="48.60609" lon="-4.50783">
        <ele>68.3</ele>
        <time>2011-06-20T10:52:28Z</time>
      </trkpt>
      <trkpt lat="48.60609" lon="-4.50785">
        <ele>68.9</ele>
        <time>2011-06-20T10:52:29Z</time>
      </trkpt>
      <trkpt lat="48.60608" lon="-4.50787">
        <ele>69.8</ele>
        <time>2011-06-20T10:52:30Z</time>
      </trkpt>
      <trkpt lat="48.60606" lon="-4.50789">
        <ele>70.8</ele>
        <time>2011-06-20T10:52:32Z</time>
      </trkpt>
      <trkpt lat="48.60606" lon="-4.50789">
        <ele>70.8</ele>
        <time>2011-06-20T10:52:35Z</time>
      </trkpt>
      <trkpt lat="48.60605" lon="-4.50798">
        <ele>72.7</ele>
        <time>2011-06-20T10:52:37Z</time>
      </trkpt>
      <trkpt lat="48.60603" lon="-4.50799">
        <ele>72.8</ele>
        <time>2011-06-20T10:52:38Z</time>
      </trkpt>
      <trkpt lat="48.60602" lon="-4.50801">
        <ele>74.4</ele>
        <time>2011-06-20T10:52:39Z</time>
      </trkpt>
      <trkpt lat="48.606" lon="-4.50803">
        <ele>74.8</ele>
        <time>2011-06-20T10:52:39Z</time>
      </trkpt>
      <trkpt lat="48.60599" lon="-4.50805">
        <ele>74.9</ele>
        <time>2011-06-20T10:52:40Z</time>
      </trkpt>
      <trkpt lat="48.60598" lon="-4.50807">
        <ele>74.3</ele>
        <time>2011-06-20T10:52:41Z</time>
      </trkpt>
      <trkpt lat="48.60598" lon="-4.50809">
        <ele>74.2</ele>
        <time>2011-06-20T10:52:42Z</time>
      </trkpt>
      <trkpt lat="48.60598" lon="-4.50811">
        <ele>74.2</ele>
        <time>2011-06-20T10:52:43Z</time>
      </trkpt>
      <trkpt lat="48.60598" lon="-4.50813">
        <ele>73.9</ele>
        <time>2011-06-20T10:52:44Z</time>
      </trkpt>
      <trkpt lat="48.60597" lon="-4.50816">
        <ele>73.3</ele>
        <time>2011-06-20T10:52:46Z</time>
      </trkpt>
      <trkpt lat="48.60597" lon="-4.50816">
        <ele>73.3</ele>
        <time>2011-06-20T10:52:50Z</time>
      </trkpt>
      <trkpt lat="48.6059" lon="-4.50823">
        <ele>71.5</ele>
        <time>2011-06-20T10:52:52Z</time>
      </trkpt>
      <trkpt lat="48.60589" lon="-4.50823">
        <ele>71.5</ele>
        <time>2011-06-20T10:52:53Z</time>
      </trkpt>
      <trkpt lat="48.60586" lon="-4.50824">
        <ele>72.3</ele>
        <time>2011-06-20T10:52:54Z</time>
      </trkpt>
      <trkpt lat="48.60585" lon="-4.50824">
        <ele>74.1</ele>
        <time>2011-06-20T10:52:55Z</time>
      </trkpt>
      <trkpt lat="48.60584" lon="-4.50823">
        <ele>74.5</ele>
        <time>2011-06-20T10:52:56Z</time>
      </trkpt>
      <trkpt lat="48.60582" lon="-4.50824">
        <ele>75.3</ele>
        <time>2011-06-20T10:52:57Z</time>
      </trkpt>
      <trkpt lat="48.60582" lon="-4.50824">
        <ele>75.3</ele>
        <time>2011-06-20T10:53:10Z</time>
      </trkpt>
      <trkpt lat="48.60565" lon="-4.50822">
        <ele>70.9</ele>
        <time>2011-06-20T10:53:12Z</time>
      </trkpt>
      <trkpt lat="48.60564" lon="-4.50822">
        <ele>69.9</ele>
        <time>2011-06-20T10:53:13Z</time>
      </trkpt>
      <trkpt lat="48.60562" lon="-4.50821">
        <ele>69</ele>
        <time>2011-06-20T10:53:14Z</time>
      </trkpt>
      <trkpt lat="48.60561" lon="-4.50821">
        <ele>67.4</ele>
        <time>2011-06-20T10:53:15Z</time>
      </trkpt>
      <trkpt lat="48.60558" lon="-4.50821">
        <ele>67.5</ele>
        <time>2011-06-20T10:53:15Z</time>
      </trkpt>
      <trkpt lat="48.60557" lon="-4.50821">
        <ele>66.2</ele>
        <time>2011-06-20T10:53:16Z</time>
      </trkpt>
      <trkpt lat="48.60556" lon="-4.5082">
        <ele>63.9</ele>
        <time>2011-06-20T10:53:17Z</time>
      </trkpt>
      <trkpt lat="48.60555" lon="-4.50819">
        <ele>63.4</ele>
        <time>2011-06-20T10:53:18Z</time>
      </trkpt>
      <trkpt lat="48.60553" lon="-4.50819">
        <ele>63.4</ele>
        <time>2011-06-20T10:53:20Z</time>
      </trkpt>
      <trkpt lat="48.60553" lon="-4.50819">
        <ele>63.4</ele>
        <time>2011-06-20T10:53:32Z</time>
      </trkpt>
      <trkpt lat="48.60538" lon="-4.50811">
        <ele>62.4</ele>
        <time>2011-06-20T10:53:34Z</time>
      </trkpt>
      <trkpt lat="48.60538" lon="-4.50809">
        <ele>62.5</ele>
        <time>2011-06-20T10:53:35Z</time>
      </trkpt>
      <trkpt lat="48.60537" lon="-4.50808">
        <ele>62.3</ele>
        <time>2011-06-20T10:53:36Z</time>
      </trkpt>
      <trkpt lat="48.60536" lon="-4.50807">
        <ele>62</ele>
        <time>2011-06-20T10:53:37Z</time>
      </trkpt>
      <trkpt lat="48.60535" lon="-4.50805">
        <ele>61.6</ele>
        <time>2011-06-20T10:53:37Z</time>
      </trkpt>
      <trkpt lat="48.60534" lon="-4.50804">
        <ele>61.5</ele>
        <time>2011-06-20T10:53:39Z</time>
      </trkpt>
      <trkpt lat="48.60533" lon="-4.50803">
        <ele>61.7</ele>
        <time>2011-06-20T10:53:40Z</time>
      </trkpt>
      <trkpt lat="48.60532" lon="-4.50802">
        <ele>61.6</ele>
        <time>2011-06-20T10:53:41Z</time>
      </trkpt>
      <trkpt lat="48.60531" lon="-4.50801">
        <ele>61.6</ele>
        <time>2011-06-20T10:53:42Z</time>
      </trkpt>
      <trkpt lat="48.6053" lon="-4.508">
        <ele>61.4</ele>
        <time>2011-06-20T10:53:43Z</time>
      </trkpt>
      <trkpt lat="48.6053" lon="-4.508">
        <ele>61.4</ele>
        <time>2011-06-20T10:53:49Z</time>
      </trkpt>
      <trkpt lat="48.60527" lon="-4.50793">
        <ele>60.9</ele>
        <time>2011-06-20T10:53:51Z</time>
      </trkpt>
      <trkpt lat="48.60527" lon="-4.50791">
        <ele>60.7</ele>
        <time>2011-06-20T10:53:52Z</time>
      </trkpt>
      <trkpt lat="48.60527" lon="-4.50789">
        <ele>60.8</ele>
        <time>2011-06-20T10:53:53Z</time>
      </trkpt>
      <trkpt lat="48.60526" lon="-4.50787">
        <ele>60.8</ele>
        <time>2011-06-20T10:53:54Z</time>
      </trkpt>
      <trkpt lat="48.60526" lon="-4.50786">
        <ele>60.9</ele>
        <time>2011-06-20T10:53:55Z</time>
      </trkpt>
      <trkpt lat="48.60526" lon="-4.50784">
        <ele>60.7</ele>
        <time>2011-06-20T10:53:55Z</time>
      </trkpt>
      <trkpt lat="48.60526" lon="-4.50782">
        <ele>60.6</ele>
        <time>2011-06-20T10:53:56Z</time>
      </trkpt>
      <trkpt lat="48.60526" lon="-4.5078">
        <ele>60.8</ele>
        <time>2011-06-20T10:53:57Z</time>
      </trkpt>
      <trkpt lat="48.60526" lon="-4.50778">
        <ele>60.6</ele>
        <time>2011-06-20T10:53:58Z</time>
      </trkpt>
      <trkpt lat="48.60526" lon="-4.50776">
        <ele>60.5</ele>
        <time>2011-06-20T10:53:59Z</time>
      </trkpt>
      <trkpt lat="48.60527" lon="-4.50775">
        <ele>60.2</ele>
        <time>2011-06-20T10:54:00Z</time>
      </trkpt>
      <trkpt lat="48.60527" lon="-4.50773">
        <ele>60.2</ele>
        <time>2011-06-20T10:54:01Z</time>
      </trkpt>
      <trkpt lat="48.60528" lon="-4.50771">
        <ele>60.6</ele>
        <time>2011-06-20T10:54:02Z</time>
      </trkpt>
      <trkpt lat="48.60529" lon="-4.5077">
        <ele>61.6</ele>
        <time>2011-06-20T10:54:03Z</time>
      </trkpt>
      <trkpt lat="48.60529" lon="-4.50768">
        <ele>62</ele>
        <time>2011-06-20T10:54:04Z</time>
      </trkpt>
      <trkpt lat="48.60528" lon="-4.50766">
        <ele>62</ele>
        <time>2011-06-20T10:54:05Z</time>
      </trkpt>
      <trkpt lat="48.60528" lon="-4.50763">
        <ele>62.6</ele>
        <time>2011-06-20T10:54:06Z</time>
      </trkpt>
      <trkpt lat="48.60528" lon="-4.50762">
        <ele>63.2</ele>
        <time>2011-06-20T10:54:07Z</time>
      </trkpt>
      <trkpt lat="48.60528" lon="-4.5076">
        <ele>63.7</ele>
        <time>2011-06-20T10:54:08Z</time>
      </trkpt>
      <trkpt lat="48.60528" lon="-4.50758">
        <ele>64.1</ele>
        <time>2011-06-20T10:54:09Z</time>
      </trkpt>
      <trkpt lat="48.60528" lon="-4.50756">
        <ele>64</ele>
        <time>2011-06-20T10:54:10Z</time>
      </trkpt>
      <trkpt lat="48.60527" lon="-4.50754">
        <ele>63.9</ele>
        <time>2011-06-20T10:54:11Z</time>
      </trkpt>
      <trkpt lat="48.60527" lon="-4.50752">
        <ele>63.9</ele>
        <time>2011-06-20T10:54:12Z</time>
      </trkpt>
      <trkpt lat="48.60527" lon="-4.50749">
        <ele>63.9</ele>
        <time>2011-06-20T10:54:13Z</time>
      </trkpt>
      <trkpt lat="48.60526" lon="-4.50747">
        <ele>63.8</ele>
        <time>2011-06-20T10:54:14Z</time>
      </trkpt>
      <trkpt lat="48.60526" lon="-4.50745">
        <ele>63.6</ele>
        <time>2011-06-20T10:54:15Z</time>
      </trkpt>
      <trkpt lat="48.60525" lon="-4.50743">
        <ele>63.7</ele>
        <time>2011-06-20T10:54:16Z</time>
      </trkpt>
      <trkpt lat="48.60525" lon="-4.50741">
        <ele>63.7</ele>
        <time>2011-06-20T10:54:17Z</time>
      </trkpt>
      <trkpt lat="48.60525" lon="-4.50739">
        <ele>64</ele>
        <time>2011-06-20T10:54:18Z</time>
      </trkpt>
      <trkpt lat="48.60525" lon="-4.50738">
        <ele>64.2</ele>
        <time>2011-06-20T10:54:19Z</time>
      </trkpt>
      <trkpt lat="48.60524" lon="-4.50736">
        <ele>64.1</ele>
        <time>2011-06-20T10:54:20Z</time>
      </trkpt>
      <trkpt lat="48.60524" lon="-4.50734">
        <ele>64</ele>
        <time>2011-06-20T10:54:21Z</time>
      </trkpt>
      <trkpt lat="48.60523" lon="-4.50732">
        <ele>63.8</ele>
        <time>2011-06-20T10:54:22Z</time>
      </trkpt>
      <trkpt lat="48.60523" lon="-4.5073">
        <ele>63.6</ele>
        <time>2011-06-20T10:54:23Z</time>
      </trkpt>
      <trkpt lat="48.60523" lon="-4.50728">
        <ele>63.4</ele>
        <time>2011-06-20T10:54:24Z</time>
      </trkpt>
      <trkpt lat="48.60523" lon="-4.50726">
        <ele>63.5</ele>
        <time>2011-06-20T10:54:25Z</time>
      </trkpt>
      <trkpt lat="48.60522" lon="-4.50725">
        <ele>63.8</ele>
        <time>2011-06-20T10:54:26Z</time>
      </trkpt>
      <trkpt lat="48.60522" lon="-4.50723">
        <ele>63.9</ele>
        <time>2011-06-20T10:54:27Z</time>
      </trkpt>
      <trkpt lat="48.60522" lon="-4.50721">
        <ele>63.8</ele>
        <time>2011-06-20T10:54:28Z</time>
      </trkpt>
      <trkpt lat="48.60522" lon="-4.50719">
        <ele>63.3</ele>
        <time>2011-06-20T10:54:29Z</time>
      </trkpt>
      <trkpt lat="48.60521" lon="-4.50716">
        <ele>63.3</ele>
        <time>2011-06-20T10:54:30Z</time>
      </trkpt>
      <trkpt lat="48.60521" lon="-4.50715">
        <ele>63.5</ele>
        <time>2011-06-20T10:54:31Z</time>
      </trkpt>
      <trkpt lat="48.60521" lon="-4.50712">
        <ele>63.3</ele>
        <time>2011-06-20T10:54:32Z</time>
      </trkpt>
      <trkpt lat="48.60521" lon="-4.5071">
        <ele>62.8</ele>
        <time>2011-06-20T10:54:33Z</time>
      </trkpt>
      <trkpt lat="48.60521" lon="-4.50709">
        <ele>62.9</ele>
        <time>2011-06-20T10:54:34Z</time>
      </trkpt>
      <trkpt lat="48.60521" lon="-4.50707">
        <ele>63.2</ele>
        <time>2011-06-20T10:54:35Z</time>
      </trkpt>
      <trkpt lat="48.60521" lon="-4.50705">
        <ele>63.3</ele>
        <time>2011-06-20T10:54:36Z</time>
      </trkpt>
      <trkpt lat="48.60522" lon="-4.50703">
        <ele>63.5</ele>
        <time>2011-06-20T10:54:37Z</time>
      </trkpt>
      <trkpt lat="48.60522" lon="-4.50702">
        <ele>63.7</ele>
        <time>2011-06-20T10:54:38Z</time>
      </trkpt>
      <trkpt lat="48.60523" lon="-4.507">
        <ele>63.7</ele>
        <time>2011-06-20T10:54:39Z</time>
      </trkpt>
      <trkpt lat="48.60523" lon="-4.50698">
        <ele>63.4</ele>
        <time>2011-06-20T10:54:40Z</time>
      </trkpt>
      <trkpt lat="48.60523" lon="-4.50696">
        <ele>63.4</ele>
        <time>2011-06-20T10:54:41Z</time>
      </trkpt>
      <trkpt lat="48.60524" lon="-4.50694">
        <ele>63.3</ele>
        <time>2011-06-20T10:54:42Z</time>
      </trkpt>
      <trkpt lat="48.60524" lon="-4.50692">
        <ele>62.9</ele>
        <time>2011-06-20T10:54:43Z</time>
      </trkpt>
      <trkpt lat="48.60523" lon="-4.5069">
        <ele>63.7</ele>
        <time>2011-06-20T10:54:45Z</time>
      </trkpt>
      <trkpt lat="48.60523" lon="-4.5069">
        <ele>63.7</ele>
        <time>2011-06-20T10:55:00Z</time>
      </trkpt>
      <trkpt lat="48.60525" lon="-4.50674">
        <ele>63.4</ele>
        <time>2011-06-20T10:55:01Z</time>
      </trkpt>
      <trkpt lat="48.60525" lon="-4.50672">
        <ele>63.9</ele>
        <time>2011-06-20T10:55:03Z</time>
      </trkpt>
      <trkpt lat="48.60526" lon="-4.50669">
        <ele>64.1</ele>
        <time>2011-06-20T10:55:04Z</time>
      </trkpt>
      <trkpt lat="48.60526" lon="-4.50666">
        <ele>64.9</ele>
        <time>2011-06-20T10:55:05Z</time>
      </trkpt>
      <trkpt lat="48.60526" lon="-4.50664">
        <ele>64.6</ele>
        <time>2011-06-20T10:55:06Z</time>
      </trkpt>
      <trkpt lat="48.60526" lon="-4.50662">
        <ele>64.2</ele>
        <time>2011-06-20T10:55:06Z</time>
      </trkpt>
      <trkpt lat="48.60526" lon="-4.50661">
        <ele>63.6</ele>
        <time>2011-06-20T10:55:07Z</time>
      </trkpt>
      <trkpt lat="48.60525" lon="-4.50659">
        <ele>63.3</ele>
        <time>2011-06-20T10:55:08Z</time>
      </trkpt>
      <trkpt lat="48.60525" lon="-4.50658">
        <ele>62.7</ele>
        <time>2011-06-20T10:55:09Z</time>
      </trkpt>
      <trkpt lat="48.60524" lon="-4.50656">
        <ele>62.8</ele>
        <time>2011-06-20T10:55:11Z</time>
      </trkpt>
      <trkpt lat="48.60524" lon="-4.50656">
        <ele>62.8</ele>
        <time>2011-06-20T10:55:20Z</time>
      </trkpt>
      <trkpt lat="48.60522" lon="-4.50646">
        <ele>64</ele>
        <time>2011-06-20T10:55:20Z</time>
      </trkpt>
      <trkpt lat="48.60521" lon="-4.50644">
        <ele>63.6</ele>
        <time>2011-06-20T10:55:21Z</time>
      </trkpt>
      <trkpt lat="48.6052" lon="-4.50643">
        <ele>63.1</ele>
        <time>2011-06-20T10:55:22Z</time>
      </trkpt>
      <trkpt lat="48.60519" lon="-4.50641">
        <ele>62.9</ele>
        <time>2011-06-20T10:55:24Z</time>
      </trkpt>
      <trkpt lat="48.60519" lon="-4.50638">
        <ele>62.3</ele>
        <time>2011-06-20T10:55:25Z</time>
      </trkpt>
      <trkpt lat="48.60519" lon="-4.50635">
        <ele>62.3</ele>
        <time>2011-06-20T10:55:26Z</time>
      </trkpt>
      <trkpt lat="48.60519" lon="-4.50633">
        <ele>61.2</ele>
        <time>2011-06-20T10:55:28Z</time>
      </trkpt>
      <trkpt lat="48.60519" lon="-4.5063">
        <ele>60.4</ele>
        <time>2011-06-20T10:55:28Z</time>
      </trkpt>
      <trkpt lat="48.60518" lon="-4.50628">
        <ele>60.5</ele>
        <time>2011-06-20T10:55:30Z</time>
      </trkpt>
      <trkpt lat="48.60517" lon="-4.50626">
        <ele>60.8</ele>
        <time>2011-06-20T10:55:31Z</time>
      </trkpt>
      <trkpt lat="48.60514" lon="-4.50626">
        <ele>62.4</ele>
        <time>2011-06-20T10:55:32Z</time>
      </trkpt>
      <trkpt lat="48.60514" lon="-4.50624">
        <ele>62.4</ele>
        <time>2011-06-20T10:55:33Z</time>
      </trkpt>
      <trkpt lat="48.60513" lon="-4.50622">
        <ele>62.4</ele>
        <time>2011-06-20T10:55:34Z</time>
      </trkpt>
      <trkpt lat="48.60512" lon="-4.5062">
        <ele>62.3</ele>
        <time>2011-06-20T10:55:35Z</time>
      </trkpt>
      <trkpt lat="48.60511" lon="-4.50618">
        <ele>62.4</ele>
        <time>2011-06-20T10:55:37Z</time>
      </trkpt>
      <trkpt lat="48.60511" lon="-4.50616">
        <ele>62.6</ele>
        <time>2011-06-20T10:55:38Z</time>
      </trkpt>
      <trkpt lat="48.6051" lon="-4.50614">
        <ele>62.2</ele>
        <time>2011-06-20T10:55:40Z</time>
      </trkpt>
      <trkpt lat="48.60509" lon="-4.50612">
        <ele>62.2</ele>
        <time>2011-06-20T10:55:41Z</time>
      </trkpt>
      <trkpt lat="48.60509" lon="-4.5061">
        <ele>62.1</ele>
        <time>2011-06-20T10:55:41Z</time>
      </trkpt>
      <trkpt lat="48.60508" lon="-4.50608">
        <ele>63.7</ele>
        <time>2011-06-20T10:55:43Z</time>
      </trkpt>
      <trkpt lat="48.60507" lon="-4.50606">
        <ele>65.4</ele>
        <time>2011-06-20T10:55:44Z</time>
      </trkpt>
      <trkpt lat="48.60506" lon="-4.50605">
        <ele>65.6</ele>
        <time>2011-06-20T10:55:45Z</time>
      </trkpt>
      <trkpt lat="48.60505" lon="-4.50603">
        <ele>66</ele>
        <time>2011-06-20T10:55:46Z</time>
      </trkpt>
      <trkpt lat="48.60504" lon="-4.50601">
        <ele>66.6</ele>
        <time>2011-06-20T10:55:47Z</time>
      </trkpt>
      <trkpt lat="48.60503" lon="-4.50599">
        <ele>67.5</ele>
        <time>2011-06-20T10:55:48Z</time>
      </trkpt>
      <trkpt lat="48.60502" lon="-4.50597">
        <ele>67.6</ele>
        <time>2011-06-20T10:55:49Z</time>
      </trkpt>
      <trkpt lat="48.60502" lon="-4.50595">
        <ele>67.2</ele>
        <time>2011-06-20T10:55:50Z</time>
      </trkpt>
      <trkpt lat="48.60501" lon="-4.50594">
        <ele>65.9</ele>
        <time>2011-06-20T10:55:51Z</time>
      </trkpt>
      <trkpt lat="48.60501" lon="-4.50592">
        <ele>64.9</ele>
        <time>2011-06-20T10:55:52Z</time>
      </trkpt>
      <trkpt lat="48.605" lon="-4.50591">
        <ele>64.4</ele>
        <time>2011-06-20T10:55:53Z</time>
      </trkpt>
      <trkpt lat="48.60499" lon="-4.50589">
        <ele>63.8</ele>
        <time>2011-06-20T10:55:53Z</time>
      </trkpt>
      <trkpt lat="48.60499" lon="-4.50587">
        <ele>63.4</ele>
        <time>2011-06-20T10:55:54Z</time>
      </trkpt>
      <trkpt lat="48.60498" lon="-4.50585">
        <ele>63</ele>
        <time>2011-06-20T10:55:54Z</time>
      </trkpt>
      <trkpt lat="48.60498" lon="-4.50583">
        <ele>62.8</ele>
        <time>2011-06-20T10:55:56Z</time>
      </trkpt>
      <trkpt lat="48.60497" lon="-4.50581">
        <ele>62.5</ele>
        <time>2011-06-20T10:55:57Z</time>
      </trkpt>
      <trkpt lat="48.60497" lon="-4.5058">
        <ele>62.2</ele>
        <time>2011-06-20T10:55:59Z</time>
      </trkpt>
      <trkpt lat="48.60496" lon="-4.50578">
        <ele>62.2</ele>
        <time>2011-06-20T10:56:00Z</time>
      </trkpt>
      <trkpt lat="48.60496" lon="-4.50577">
        <ele>62.6</ele>
        <time>2011-06-20T10:56:01Z</time>
      </trkpt>
      <trkpt lat="48.60495" lon="-4.50576">
        <ele>63</ele>
        <time>2011-06-20T10:56:02Z</time>
      </trkpt>
      <trkpt lat="48.60494" lon="-4.50574">
        <ele>63.4</ele>
        <time>2011-06-20T10:56:04Z</time>
      </trkpt>
      <trkpt lat="48.60493" lon="-4.50572">
        <ele>63.8</ele>
        <time>2011-06-20T10:56:05Z</time>
      </trkpt>
      <trkpt lat="48.60493" lon="-4.50571">
        <ele>63.4</ele>
        <time>2011-06-20T10:56:07Z</time>
      </trkpt>
      <trkpt lat="48.60492" lon="-4.50568">
        <ele>63.7</ele>
        <time>2011-06-20T10:56:08Z</time>
      </trkpt>
      <trkpt lat="48.60492" lon="-4.50567">
        <ele>63.7</ele>
        <time>2011-06-20T10:56:08Z</time>
      </trkpt>
      <trkpt lat="48.60492" lon="-4.50565">
        <ele>62.9</ele>
        <time>2011-06-20T10:56:10Z</time>
      </trkpt>
      <trkpt lat="48.60492" lon="-4.50564">
        <ele>62.3</ele>
        <time>2011-06-20T10:56:11Z</time>
      </trkpt>
      <trkpt lat="48.60491" lon="-4.50562">
        <ele>61.5</ele>
        <time>2011-06-20T10:56:12Z</time>
      </trkpt>
      <trkpt lat="48.60491" lon="-4.50562">
        <ele>61.5</ele>
        <time>2011-06-20T10:56:12Z</time>
      </trkpt>
      <trkpt lat="48.60491" lon="-4.5056">
        <ele>61.1</ele>
        <time>2011-06-20T10:56:14Z</time>
      </trkpt>
      <trkpt lat="48.60491" lon="-4.50558">
        <ele>61</ele>
        <time>2011-06-20T10:56:14Z</time>
      </trkpt>
      <trkpt lat="48.6049" lon="-4.50556">
        <ele>61.2</ele>
        <time>2011-06-20T10:56:15Z</time>
      </trkpt>
      <trkpt lat="48.6049" lon="-4.50554">
        <ele>60.4</ele>
        <time>2011-06-20T10:56:17Z</time>
      </trkpt>
      <trkpt lat="48.6049" lon="-4.50552">
        <ele>60.6</ele>
        <time>2011-06-20T10:56:18Z</time>
      </trkpt>
      <trkpt lat="48.60488" lon="-4.50551">
        <ele>60.4</ele>
        <time>2011-06-20T10:56:19Z</time>
      </trkpt>
      <trkpt lat="48.60487" lon="-4.5055">
        <ele>60.74</ele>
        <time>2011-06-20T10:56:21Z</time>
      </trkpt>
      <trkpt lat="48.60487" lon="-4.5055">
        <ele>60.74</ele>
        <time>2011-06-20T10:56:27Z</time>
      </trkpt>
      <trkpt lat="48.60486" lon="-4.50547">
        <ele>61.7</ele>
        <time>2011-06-20T10:56:28Z</time>
      </trkpt>
      <trkpt lat="48.60485" lon="-4.50545">
        <ele>61.6</ele>
        <time>2011-06-20T10:56:30Z</time>
      </trkpt>
      <trkpt lat="48.60485" lon="-4.50543">
        <ele>61.6</ele>
        <time>2011-06-20T10:56:30Z</time>
      </trkpt>
      <trkpt lat="48.60484" lon="-4.50542">
        <ele>61.5</ele>
        <time>2011-06-20T10:56:31Z</time>
      </trkpt>
      <trkpt lat="48.60481" lon="-4.50541">
        <ele>62.5</ele>
        <time>2011-06-20T10:56:32Z</time>
      </trkpt>
      <trkpt lat="48.60481" lon="-4.50539">
        <ele>62.2</ele>
        <time>2011-06-20T10:56:33Z</time>
      </trkpt>
      <trkpt lat="48.6048" lon="-4.50537">
        <ele>62.8</ele>
        <time>2011-06-20T10:56:34Z</time>
      </trkpt>
      <trkpt lat="48.6048" lon="-4.50535">
        <ele>63</ele>
        <time>2011-06-20T10:56:35Z</time>
      </trkpt>
      <trkpt lat="48.6048" lon="-4.50533">
        <ele>62.6</ele>
        <time>2011-06-20T10:56:36Z</time>
      </trkpt>
      <trkpt lat="48.60479" lon="-4.50531">
        <ele>62.7</ele>
        <time>2011-06-20T10:56:36Z</time>
      </trkpt>
      <trkpt lat="48.60479" lon="-4.50528">
        <ele>63</ele>
        <time>2011-06-20T10:56:38Z</time>
      </trkpt>
      <trkpt lat="48.60479" lon="-4.50526">
        <ele>62.7</ele>
        <time>2011-06-20T10:56:39Z</time>
      </trkpt>
      <trkpt lat="48.60479" lon="-4.50524">
        <ele>62.7</ele>
        <time>2011-06-20T10:56:41Z</time>
      </trkpt>
      <trkpt lat="48.6048" lon="-4.50522">
        <ele>62.9</ele>
        <time>2011-06-20T10:56:42Z</time>
      </trkpt>
      <trkpt lat="48.6048" lon="-4.50521">
        <ele>63.3</ele>
        <time>2011-06-20T10:56:42Z</time>
      </trkpt>
      <trkpt lat="48.60481" lon="-4.50519">
        <ele>63.5</ele>
        <time>2011-06-20T10:56:43Z</time>
      </trkpt>
      <trkpt lat="48.60481" lon="-4.50517">
        <ele>63.5</ele>
        <time>2011-06-20T10:56:45Z</time>
      </trkpt>
      <trkpt lat="48.60482" lon="-4.50515">
        <ele>63.4</ele>
        <time>2011-06-20T10:56:46Z</time>
      </trkpt>
      <trkpt lat="48.60483" lon="-4.50513">
        <ele>63.4</ele>
        <time>2011-06-20T10:56:48Z</time>
      </trkpt>
      <trkpt lat="48.60483" lon="-4.50512">
        <ele>63.3</ele>
        <time>2011-06-20T10:56:49Z</time>
      </trkpt>
      <trkpt lat="48.60484" lon="-4.5051">
        <ele>63.1</ele>
        <time>2011-06-20T10:56:49Z</time>
      </trkpt>
      <trkpt lat="48.60485" lon="-4.50508">
        <ele>62.8</ele>
        <time>2011-06-20T10:56:50Z</time>
      </trkpt>
      <trkpt lat="48.60486" lon="-4.50507">
        <ele>62.7</ele>
        <time>2011-06-20T10:56:52Z</time>
      </trkpt>
      <trkpt lat="48.60486" lon="-4.50506">
        <ele>62.1</ele>
        <time>2011-06-20T10:56:52Z</time>
      </trkpt>
      <trkpt lat="48.60487" lon="-4.50504">
        <ele>61.1</ele>
        <time>2011-06-20T10:56:53Z</time>
      </trkpt>
      <trkpt lat="48.60488" lon="-4.50502">
        <ele>60.8</ele>
        <time>2011-06-20T10:56:54Z</time>
      </trkpt>
      <trkpt lat="48.60489" lon="-4.50501">
        <ele>60.7</ele>
        <time>2011-06-20T10:56:55Z</time>
      </trkpt>
      <trkpt lat="48.6049" lon="-4.505">
        <ele>60</ele>
        <time>2011-06-20T10:56:57Z</time>
      </trkpt>
      <trkpt lat="48.60492" lon="-4.50499">
        <ele>60</ele>
        <time>2011-06-20T10:56:57Z</time>
      </trkpt>
      <trkpt lat="48.60493" lon="-4.50498">
        <ele>60.1</ele>
        <time>2011-06-20T10:56:58Z</time>
      </trkpt>
      <trkpt lat="48.60494" lon="-4.50497">
        <ele>59.9</ele>
        <time>2011-06-20T10:56:58Z</time>
      </trkpt>
      <trkpt lat="48.60495" lon="-4.50496">
        <ele>59.7</ele>
        <time>2011-06-20T10:57:00Z</time>
      </trkpt>
      <trkpt lat="48.60497" lon="-4.50494">
        <ele>58.7</ele>
        <time>2011-06-20T10:57:01Z</time>
      </trkpt>
      <trkpt lat="48.60498" lon="-4.50493">
        <ele>57.8</ele>
        <time>2011-06-20T10:57:03Z</time>
      </trkpt>
      <trkpt lat="48.60499" lon="-4.50491">
        <ele>57.1</ele>
        <time>2011-06-20T10:57:04Z</time>
      </trkpt>
      <trkpt lat="48.605" lon="-4.50489">
        <ele>56.2</ele>
        <time>2011-06-20T10:57:06Z</time>
      </trkpt>
      <trkpt lat="48.60501" lon="-4.50487">
        <ele>55.2</ele>
        <time>2011-06-20T10:57:07Z</time>
      </trkpt>
      <trkpt lat="48.60503" lon="-4.50486">
        <ele>54.4</ele>
        <time>2011-06-20T10:57:08Z</time>
      </trkpt>
      <trkpt lat="48.60504" lon="-4.50485">
        <ele>53.7</ele>
        <time>2011-06-20T10:57:10Z</time>
      </trkpt>
      <trkpt lat="48.60505" lon="-4.50484">
        <ele>52.8</ele>
        <time>2011-06-20T10:57:11Z</time>
      </trkpt>
      <trkpt lat="48.60506" lon="-4.50483">
        <ele>52.8</ele>
        <time>2011-06-20T10:57:13Z</time>
      </trkpt>
      <trkpt lat="48.60507" lon="-4.5048">
        <ele>52.9</ele>
        <time>2011-06-20T10:57:14Z</time>
      </trkpt>
      <trkpt lat="48.60508" lon="-4.50479">
        <ele>53</ele>
        <time>2011-06-20T10:57:14Z</time>
      </trkpt>
      <trkpt lat="48.60509" lon="-4.50478">
        <ele>52.8</ele>
        <time>2011-06-20T10:57:16Z</time>
      </trkpt>
      <trkpt lat="48.6051" lon="-4.50477">
        <ele>52.8</ele>
        <time>2011-06-20T10:57:16Z</time>
      </trkpt>
      <trkpt lat="48.60513" lon="-4.50475">
        <ele>52.4</ele>
        <time>2011-06-20T10:57:17Z</time>
      </trkpt>
      <trkpt lat="48.60514" lon="-4.50474">
        <ele>51.9</ele>
        <time>2011-06-20T10:57:17Z</time>
      </trkpt>
      <trkpt lat="48.60516" lon="-4.50473">
        <ele>52.3</ele>
        <time>2011-06-20T10:57:18Z</time>
      </trkpt>
      <trkpt lat="48.60517" lon="-4.50473">
        <ele>52.2</ele>
        <time>2011-06-20T10:57:18Z</time>
      </trkpt>
      <trkpt lat="48.60518" lon="-4.50472">
        <ele>52.2</ele>
        <time>2011-06-20T10:57:19Z</time>
      </trkpt>
      <trkpt lat="48.60519" lon="-4.5047">
        <ele>52.4</ele>
        <time>2011-06-20T10:57:20Z</time>
      </trkpt>
      <trkpt lat="48.60519" lon="-4.50469">
        <ele>52.4</ele>
        <time>2011-06-20T10:57:21Z</time>
      </trkpt>
      <trkpt lat="48.60521" lon="-4.50466">
        <ele>55.6</ele>
        <time>2011-06-20T10:57:21Z</time>
      </trkpt>
      <trkpt lat="48.60521" lon="-4.50465">
        <ele>56.5</ele>
        <time>2011-06-20T10:57:22Z</time>
      </trkpt>
      <trkpt lat="48.60522" lon="-4.50464">
        <ele>57.3</ele>
        <time>2011-06-20T10:57:23Z</time>
      </trkpt>
      <trkpt lat="48.60523" lon="-4.50463">
        <ele>57.9</ele>
        <time>2011-06-20T10:57:25Z</time>
      </trkpt>
      <trkpt lat="48.60524" lon="-4.50461">
        <ele>58.2</ele>
        <time>2011-06-20T10:57:26Z</time>
      </trkpt>
      <trkpt lat="48.60525" lon="-4.5046">
        <ele>58.2</ele>
        <time>2011-06-20T10:57:27Z</time>
      </trkpt>
      <trkpt lat="48.60526" lon="-4.50459">
        <ele>59</ele>
        <time>2011-06-20T10:57:28Z</time>
      </trkpt>
      <trkpt lat="48.60527" lon="-4.50458">
        <ele>59.5</ele>
        <time>2011-06-20T10:57:29Z</time>
      </trkpt>
      <trkpt lat="48.60528" lon="-4.50456">
        <ele>60.1</ele>
        <time>2011-06-20T10:57:30Z</time>
      </trkpt>
      <trkpt lat="48.60529" lon="-4.50455">
        <ele>60.5</ele>
        <time>2011-06-20T10:57:31Z</time>
      </trkpt>
      <trkpt lat="48.60529" lon="-4.50454">
        <ele>60.8</ele>
        <time>2011-06-20T10:57:32Z</time>
      </trkpt>
      <trkpt lat="48.6053" lon="-4.50452">
        <ele>61.1</ele>
        <time>2011-06-20T10:57:33Z</time>
      </trkpt>
      <trkpt lat="48.60531" lon="-4.50451">
        <ele>61.5</ele>
        <time>2011-06-20T10:57:33Z</time>
      </trkpt>
      <trkpt lat="48.60532" lon="-4.5045">
        <ele>61.9</ele>
        <time>2011-06-20T10:57:35Z</time>
      </trkpt>
      <trkpt lat="48.60533" lon="-4.50449">
        <ele>62.1</ele>
        <time>2011-06-20T10:57:36Z</time>
      </trkpt>
      <trkpt lat="48.60534" lon="-4.50447">
        <ele>62.4</ele>
        <time>2011-06-20T10:57:38Z</time>
      </trkpt>
      <trkpt lat="48.60535" lon="-4.50446">
        <ele>62.5</ele>
        <time>2011-06-20T10:57:39Z</time>
      </trkpt>
      <trkpt lat="48.60536" lon="-4.50445">
        <ele>62.8</ele>
        <time>2011-06-20T10:57:40Z</time>
      </trkpt>
      <trkpt lat="48.60537" lon="-4.50444">
        <ele>63.1</ele>
        <time>2011-06-20T10:57:41Z</time>
      </trkpt>
      <trkpt lat="48.60538" lon="-4.50443">
        <ele>63.2</ele>
        <time>2011-06-20T10:57:42Z</time>
      </trkpt>
      <trkpt lat="48.60538" lon="-4.50443">
        <ele>63.7</ele>
        <time>2011-06-20T10:57:43Z</time>
      </trkpt>
      <trkpt lat="48.60539" lon="-4.50442">
        <ele>64.1</ele>
        <time>2011-06-20T10:57:45Z</time>
      </trkpt>
      <trkpt lat="48.6054" lon="-4.50441">
        <ele>63.9</ele>
        <time>2011-06-20T10:57:46Z</time>
      </trkpt>
      <trkpt lat="48.60541" lon="-4.5044">
        <ele>63.8</ele>
        <time>2011-06-20T10:57:46Z</time>
      </trkpt>
      <trkpt lat="48.60542" lon="-4.50439">
        <ele>64</ele>
        <time>2011-06-20T10:57:48Z</time>
      </trkpt>
      <trkpt lat="48.60544" lon="-4.50438">
        <ele>63.9</ele>
        <time>2011-06-20T10:57:48Z</time>
      </trkpt>
      <trkpt lat="48.60545" lon="-4.50437">
        <ele>64.1</ele>
        <time>2011-06-20T10:57:49Z</time>
      </trkpt>
      <trkpt lat="48.60546" lon="-4.50436">
        <ele>64.2</ele>
        <time>2011-06-20T10:57:50Z</time>
      </trkpt>
      <trkpt lat="48.60547" lon="-4.50435">
        <ele>64.4</ele>
        <time>2011-06-20T10:57:50Z</time>
      </trkpt>
      <trkpt lat="48.60548" lon="-4.50433">
        <ele>64.4</ele>
        <time>2011-06-20T10:57:51Z</time>
      </trkpt>
      <trkpt lat="48.60549" lon="-4.50432">
        <ele>64.6</ele>
        <time>2011-06-20T10:57:52Z</time>
      </trkpt>
      <trkpt lat="48.6055" lon="-4.50431">
        <ele>64.5</ele>
        <time>2011-06-20T10:57:52Z</time>
      </trkpt>
      <trkpt lat="48.60551" lon="-4.5043">
        <ele>64.4</ele>
        <time>2011-06-20T10:57:53Z</time>
      </trkpt>
      <trkpt lat="48.60552" lon="-4.50429">
        <ele>64.3</ele>
        <time>2011-06-20T10:57:54Z</time>
      </trkpt>
      <trkpt lat="48.60553" lon="-4.50428">
        <ele>64.3</ele>
        <time>2011-06-20T10:57:55Z</time>
      </trkpt>
      <trkpt lat="48.60554" lon="-4.50427">
        <ele>64.4</ele>
        <time>2011-06-20T10:57:56Z</time>
      </trkpt>
      <trkpt lat="48.60555" lon="-4.50426">
        <ele>64.7</ele>
        <time>2011-06-20T10:57:57Z</time>
      </trkpt>
      <trkpt lat="48.60556" lon="-4.50425">
        <ele>64.8</ele>
        <time>2011-06-20T10:57:58Z</time>
      </trkpt>
      <trkpt lat="48.60557" lon="-4.50424">
        <ele>65</ele>
        <time>2011-06-20T10:57:59Z</time>
      </trkpt>
      <trkpt lat="48.60558" lon="-4.50423">
        <ele>65.1</ele>
        <time>2011-06-20T10:58:00Z</time>
      </trkpt>
      <trkpt lat="48.60559" lon="-4.50422">
        <ele>65.2</ele>
        <time>2011-06-20T10:58:01Z</time>
      </trkpt>
      <trkpt lat="48.60559" lon="-4.50422">
        <ele>65.2</ele>
        <time>2011-06-20T10:58:06Z</time>
      </trkpt>
      <trkpt lat="48.60565" lon="-4.50417">
        <ele>66.3</ele>
        <time>2011-06-20T10:58:08Z</time>
      </trkpt>
      <trkpt lat="48.60566" lon="-4.50416">
        <ele>66.6</ele>
        <time>2011-06-20T10:58:08Z</time>
      </trkpt>
      <trkpt lat="48.60567" lon="-4.50415">
        <ele>67.1</ele>
        <time>2011-06-20T10:58:10Z</time>
      </trkpt>
      <trkpt lat="48.60569" lon="-4.50415">
        <ele>67.5</ele>
        <time>2011-06-20T10:58:11Z</time>
      </trkpt>
      <trkpt lat="48.6057" lon="-4.50414">
        <ele>67.9</ele>
        <time>2011-06-20T10:58:12Z</time>
      </trkpt>
      <trkpt lat="48.60571" lon="-4.50413">
        <ele>68.1</ele>
        <time>2011-06-20T10:58:13Z</time>
      </trkpt>
      <trkpt lat="48.60573" lon="-4.50413">
        <ele>68</ele>
        <time>2011-06-20T10:58:14Z</time>
      </trkpt>
      <trkpt lat="48.60574" lon="-4.50412">
        <ele>67.9</ele>
        <time>2011-06-20T10:58:14Z</time>
      </trkpt>
      <trkpt lat="48.60576" lon="-4.50412">
        <ele>67.7</ele>
        <time>2011-06-20T10:58:16Z</time>
      </trkpt>
      <trkpt lat="48.60577" lon="-4.50411">
        <ele>67.5</ele>
        <time>2011-06-20T10:58:17Z</time>
      </trkpt>
      <trkpt lat="48.60578" lon="-4.5041">
        <ele>67.3</ele>
        <time>2011-06-20T10:58:18Z</time>
      </trkpt>
      <trkpt lat="48.6058" lon="-4.50409">
        <ele>67</ele>
        <time>2011-06-20T10:58:20Z</time>
      </trkpt>
      <trkpt lat="48.6058" lon="-4.50408">
        <ele>67.1</ele>
        <time>2011-06-20T10:58:20Z</time>
      </trkpt>
      <trkpt lat="48.60581" lon="-4.50407">
        <ele>67.1</ele>
        <time>2011-06-20T10:58:21Z</time>
      </trkpt>
      <trkpt lat="48.60582" lon="-4.50405">
        <ele>66.8</ele>
        <time>2011-06-20T10:58:22Z</time>
      </trkpt>
      <trkpt lat="48.60584" lon="-4.50404">
        <ele>66.6</ele>
        <time>2011-06-20T10:58:23Z</time>
      </trkpt>
      <trkpt lat="48.60585" lon="-4.50403">
        <ele>66.5</ele>
        <time>2011-06-20T10:58:24Z</time>
      </trkpt>
      <trkpt lat="48.60586" lon="-4.50402">
        <ele>66.6</ele>
        <time>2011-06-20T10:58:26Z</time>
      </trkpt>
      <trkpt lat="48.60587" lon="-4.50401">
        <ele>66.4</ele>
        <time>2011-06-20T10:58:26Z</time>
      </trkpt>
      <trkpt lat="48.60588" lon="-4.504">
        <ele>66.5</ele>
        <time>2011-06-20T10:58:27Z</time>
      </trkpt>
      <trkpt lat="48.60589" lon="-4.50399">
        <ele>66.6</ele>
        <time>2011-06-20T10:58:28Z</time>
      </trkpt>
      <trkpt lat="48.6059" lon="-4.50398">
        <ele>67.4</ele>
        <time>2011-06-20T10:58:29Z</time>
      </trkpt>
      <trkpt lat="48.60591" lon="-4.50397">
        <ele>67.8</ele>
        <time>2011-06-20T10:58:30Z</time>
      </trkpt>
      <trkpt lat="48.60591" lon="-4.50397">
        <ele>67.8</ele>
        <time>2011-06-20T10:58:36Z</time>
      </trkpt>
      <trkpt lat="48.60602" lon="-4.50393">
        <ele>67.7</ele>
        <time>2011-06-20T10:58:37Z</time>
      </trkpt>
      <trkpt lat="48.60603" lon="-4.50392">
        <ele>67.5</ele>
        <time>2011-06-20T10:58:39Z</time>
      </trkpt>
      <trkpt lat="48.60604" lon="-4.50392">
        <ele>67.5</ele>
        <time>2011-06-20T10:58:40Z</time>
      </trkpt>
      <trkpt lat="48.60605" lon="-4.50392">
        <ele>67.6</ele>
        <time>2011-06-20T10:58:42Z</time>
      </trkpt>
      <trkpt lat="48.60606" lon="-4.50392">
        <ele>67.68</ele>
        <time>2011-06-20T10:58:43Z</time>
      </trkpt>
      <trkpt lat="48.60606" lon="-4.50392">
        <ele>67.68</ele>
        <time>2011-06-20T10:58:58Z</time>
      </trkpt>
      <trkpt lat="48.60614" lon="-4.50389">
        <ele>66.8</ele>
        <time>2011-06-20T10:59:00Z</time>
      </trkpt>
      <trkpt lat="48.60615" lon="-4.50387">
        <ele>66.3</ele>
        <time>2011-06-20T10:59:01Z</time>
      </trkpt>
      <trkpt lat="48.60617" lon="-4.50386">
        <ele>66.1</ele>
        <time>2011-06-20T10:59:03Z</time>
      </trkpt>
      <trkpt lat="48.60618" lon="-4.50385">
        <ele>66.3</ele>
        <time>2011-06-20T10:59:03Z</time>
      </trkpt>
      <trkpt lat="48.60619" lon="-4.50384">
        <ele>66.6</ele>
        <time>2011-06-20T10:59:04Z</time>
      </trkpt>
      <trkpt lat="48.6062" lon="-4.50383">
        <ele>66.6</ele>
        <time>2011-06-20T10:59:06Z</time>
      </trkpt>
      <trkpt lat="48.6062" lon="-4.50383">
        <ele>66.6</ele>
        <time>2011-06-20T10:59:18Z</time>
      </trkpt>
      <trkpt lat="48.60636" lon="-4.50364">
        <ele>66.5</ele>
        <time>2011-06-20T10:59:20Z</time>
      </trkpt>
      <trkpt lat="48.60637" lon="-4.50363">
        <ele>66.3</ele>
        <time>2011-06-20T10:59:21Z</time>
      </trkpt>
      <trkpt lat="48.60638" lon="-4.50361">
        <ele>66.3</ele>
        <time>2011-06-20T10:59:22Z</time>
      </trkpt>
      <trkpt lat="48.60638" lon="-4.50359">
        <ele>66.1</ele>
        <time>2011-06-20T10:59:22Z</time>
      </trkpt>
      <trkpt lat="48.60639" lon="-4.50358">
        <ele>65.6</ele>
        <time>2011-06-20T10:59:24Z</time>
      </trkpt>
      <trkpt lat="48.6064" lon="-4.50356">
        <ele>65.2</ele>
        <time>2011-06-20T10:59:25Z</time>
      </trkpt>
      <trkpt lat="48.60641" lon="-4.50354">
        <ele>65.2</ele>
        <time>2011-06-20T10:59:27Z</time>
      </trkpt>
      <trkpt lat="48.60643" lon="-4.50353">
        <ele>64.9</ele>
        <time>2011-06-20T10:59:28Z</time>
      </trkpt>
      <trkpt lat="48.60643" lon="-4.50351">
        <ele>65</ele>
        <time>2011-06-20T10:59:28Z</time>
      </trkpt>
      <trkpt lat="48.60645" lon="-4.5035">
        <ele>64.8</ele>
        <time>2011-06-20T10:59:29Z</time>
      </trkpt>
      <trkpt lat="48.60646" lon="-4.5035">
        <ele>64.7</ele>
        <time>2011-06-20T10:59:31Z</time>
      </trkpt>
      <trkpt lat="48.60647" lon="-4.50349">
        <ele>64.7</ele>
        <time>2011-06-20T10:59:32Z</time>
      </trkpt>
      <trkpt lat="48.60649" lon="-4.50348">
        <ele>64.6</ele>
        <time>2011-06-20T10:59:33Z</time>
      </trkpt>
      <trkpt lat="48.6065" lon="-4.50348">
        <ele>64.5</ele>
        <time>2011-06-20T10:59:34Z</time>
      </trkpt>
      <trkpt lat="48.60652" lon="-4.50348">
        <ele>64</ele>
        <time>2011-06-20T10:59:34Z</time>
      </trkpt>
      <trkpt lat="48.60653" lon="-4.50347">
        <ele>63.8</ele>
        <time>2011-06-20T10:59:36Z</time>
      </trkpt>
      <trkpt lat="48.60654" lon="-4.50347">
        <ele>64</ele>
        <time>2011-06-20T10:59:37Z</time>
      </trkpt>
      <trkpt lat="48.60656" lon="-4.50347">
        <ele>63.9</ele>
        <time>2011-06-20T10:59:38Z</time>
      </trkpt>
      <trkpt lat="48.60657" lon="-4.50346">
        <ele>63.7</ele>
        <time>2011-06-20T10:59:39Z</time>
      </trkpt>
      <trkpt lat="48.60659" lon="-4.50346">
        <ele>63.6</ele>
        <time>2011-06-20T10:59:40Z</time>
      </trkpt>
      <trkpt lat="48.6066" lon="-4.50345">
        <ele>63.6</ele>
        <time>2011-06-20T10:59:41Z</time>
      </trkpt>
      <trkpt lat="48.60661" lon="-4.50345">
        <ele>63.6</ele>
        <time>2011-06-20T10:59:42Z</time>
      </trkpt>
      <trkpt lat="48.60662" lon="-4.50344">
        <ele>63.7</ele>
        <time>2011-06-20T10:59:44Z</time>
      </trkpt>
      <trkpt lat="48.60663" lon="-4.50344">
        <ele>63.1</ele>
        <time>2011-06-20T10:59:45Z</time>
      </trkpt>
      <trkpt lat="48.60665" lon="-4.50344">
        <ele>63.8</ele>
        <time>2011-06-20T10:59:46Z</time>
      </trkpt>
      <trkpt lat="48.60666" lon="-4.50344">
        <ele>63.8</ele>
        <time>2011-06-20T10:59:48Z</time>
      </trkpt>
      <trkpt lat="48.60667" lon="-4.50344">
        <ele>64.2</ele>
        <time>2011-06-20T10:59:49Z</time>
      </trkpt>
      <trkpt lat="48.60668" lon="-4.50344">
        <ele>64.3</ele>
        <time>2011-06-20T10:59:51Z</time>
      </trkpt>
      <trkpt lat="48.6067" lon="-4.50344">
        <ele>65.37</ele>
        <time>2011-06-20T10:59:52Z</time>
      </trkpt>
      <trkpt lat="48.60671" lon="-4.50344">
        <ele>66.2</ele>
        <time>2011-06-20T10:59:55Z</time>
      </trkpt>
      <trkpt lat="48.60674" lon="-4.50343">
        <ele>66.7</ele>
        <time>2011-06-20T10:59:55Z</time>
      </trkpt>
      <trkpt lat="48.60675" lon="-4.50342">
        <ele>67</ele>
        <time>2011-06-20T10:59:56Z</time>
      </trkpt>
      <trkpt lat="48.60676" lon="-4.50342">
        <ele>66.5</ele>
        <time>2011-06-20T10:59:57Z</time>
      </trkpt>
      <trkpt lat="48.60677" lon="-4.50341">
        <ele>66.7</ele>
        <time>2011-06-20T10:59:57Z</time>
      </trkpt>
      <trkpt lat="48.60679" lon="-4.50341">
        <ele>66.6</ele>
        <time>2011-06-20T10:59:58Z</time>
      </trkpt>
      <trkpt lat="48.6068" lon="-4.50341">
        <ele>66.4</ele>
        <time>2011-06-20T10:59:58Z</time>
      </trkpt>
      <trkpt lat="48.60682" lon="-4.5034">
        <ele>66.1</ele>
        <time>2011-06-20T11:00:00Z</time>
      </trkpt>
      <trkpt lat="48.60682" lon="-4.5034">
        <ele>66.1</ele>
        <time>2011-06-20T11:00:01Z</time>
      </trkpt>
      <trkpt lat="48.60687" lon="-4.50338">
        <ele>63.3</ele>
        <time>2011-06-20T11:00:02Z</time>
      </trkpt>
      <trkpt lat="48.60688" lon="-4.50338">
        <ele>63.5</ele>
        <time>2011-06-20T11:00:04Z</time>
      </trkpt>
      <trkpt lat="48.60689" lon="-4.50338">
        <ele>63.3</ele>
        <time>2011-06-20T11:00:05Z</time>
      </trkpt>
      <trkpt lat="48.60691" lon="-4.50337">
        <ele>62.8</ele>
        <time>2011-06-20T11:00:06Z</time>
      </trkpt>
      <trkpt lat="48.60692" lon="-4.50337">
        <ele>62.2</ele>
        <time>2011-06-20T11:00:06Z</time>
      </trkpt>
      <trkpt lat="48.60694" lon="-4.50336">
        <ele>61.8</ele>
        <time>2011-06-20T11:00:07Z</time>
      </trkpt>
      <trkpt lat="48.60695" lon="-4.50336">
        <ele>61.1</ele>
        <time>2011-06-20T11:00:08Z</time>
      </trkpt>
      <trkpt lat="48.60697" lon="-4.50334">
        <ele>61</ele>
        <time>2011-06-20T11:00:09Z</time>
      </trkpt>
      <trkpt lat="48.60698" lon="-4.50334">
        <ele>60.6</ele>
        <time>2011-06-20T11:00:10Z</time>
      </trkpt>
      <trkpt lat="48.607" lon="-4.50333">
        <ele>60.4</ele>
        <time>2011-06-20T11:00:11Z</time>
      </trkpt>
      <trkpt lat="48.607" lon="-4.50333">
        <ele>60</ele>
        <time>2011-06-20T11:00:12Z</time>
      </trkpt>
      <trkpt lat="48.60702" lon="-4.50332">
        <ele>59.7</ele>
        <time>2011-06-20T11:00:13Z</time>
      </trkpt>
      <trkpt lat="48.60702" lon="-4.50332">
        <ele>59.7</ele>
        <time>2011-06-20T11:00:14Z</time>
      </trkpt>
      <trkpt lat="48.60704" lon="-4.50331">
        <ele>59.3</ele>
        <time>2011-06-20T11:00:15Z</time>
      </trkpt>
      <trkpt lat="48.60706" lon="-4.50331">
        <ele>59.1</ele>
        <time>2011-06-20T11:00:16Z</time>
      </trkpt>
      <trkpt lat="48.60708" lon="-4.5033">
        <ele>58.4</ele>
        <time>2011-06-20T11:00:17Z</time>
      </trkpt>
      <trkpt lat="48.60709" lon="-4.5033">
        <ele>58.3</ele>
        <time>2011-06-20T11:00:18Z</time>
      </trkpt>
      <trkpt lat="48.60711" lon="-4.50329">
        <ele>58.4</ele>
        <time>2011-06-20T11:00:19Z</time>
      </trkpt>
      <trkpt lat="48.60712" lon="-4.50329">
        <ele>59.4</ele>
        <time>2011-06-20T11:00:20Z</time>
      </trkpt>
      <trkpt lat="48.60714" lon="-4.50329">
        <ele>59.8</ele>
        <time>2011-06-20T11:00:21Z</time>
      </trkpt>
      <trkpt lat="48.60715" lon="-4.50328">
        <ele>60.4</ele>
        <time>2011-06-20T11:00:22Z</time>
      </trkpt>
      <trkpt lat="48.60716" lon="-4.50328">
        <ele>61.1</ele>
        <time>2011-06-20T11:00:23Z</time>
      </trkpt>
      <trkpt lat="48.60717" lon="-4.50328">
        <ele>61.7</ele>
        <time>2011-06-20T11:00:24Z</time>
      </trkpt>
      <trkpt lat="48.60718" lon="-4.50327">
        <ele>62.4</ele>
        <time>2011-06-20T11:00:25Z</time>
      </trkpt>
      <trkpt lat="48.60719" lon="-4.50326">
        <ele>63</ele>
        <time>2011-06-20T11:00:26Z</time>
      </trkpt>
      <trkpt lat="48.60721" lon="-4.50326">
        <ele>62.8</ele>
        <time>2011-06-20T11:00:27Z</time>
      </trkpt>
      <trkpt lat="48.60722" lon="-4.50325">
        <ele>63.3</ele>
        <time>2011-06-20T11:00:27Z</time>
      </trkpt>
      <trkpt lat="48.60723" lon="-4.50324">
        <ele>63.5</ele>
        <time>2011-06-20T11:00:28Z</time>
      </trkpt>
      <trkpt lat="48.60724" lon="-4.50323">
        <ele>63.6</ele>
        <time>2011-06-20T11:00:29Z</time>
      </trkpt>
      <trkpt lat="48.60725" lon="-4.50322">
        <ele>63.6</ele>
        <time>2011-06-20T11:00:30Z</time>
      </trkpt>
      <trkpt lat="48.60726" lon="-4.50321">
        <ele>63.7</ele>
        <time>2011-06-20T11:00:31Z</time>
      </trkpt>
      <trkpt lat="48.60727" lon="-4.5032">
        <ele>63.8</ele>
        <time>2011-06-20T11:00:31Z</time>
      </trkpt>
      <trkpt lat="48.60728" lon="-4.50319">
        <ele>64</ele>
        <time>2011-06-20T11:00:32Z</time>
      </trkpt>
      <trkpt lat="48.60729" lon="-4.50317">
        <ele>64.1</ele>
        <time>2011-06-20T11:00:33Z</time>
      </trkpt>
      <trkpt lat="48.6073" lon="-4.50316">
        <ele>64.1</ele>
        <time>2011-06-20T11:00:34Z</time>
      </trkpt>
      <trkpt lat="48.60732" lon="-4.50315">
        <ele>64.3</ele>
        <time>2011-06-20T11:00:35Z</time>
      </trkpt>
      <trkpt lat="48.60733" lon="-4.50313">
        <ele>64.4</ele>
        <time>2011-06-20T11:00:36Z</time>
      </trkpt>
      <trkpt lat="48.60734" lon="-4.50312">
        <ele>64.4</ele>
        <time>2011-06-20T11:00:37Z</time>
      </trkpt>
      <trkpt lat="48.60735" lon="-4.5031">
        <ele>64.6</ele>
        <time>2011-06-20T11:00:38Z</time>
      </trkpt>
      <trkpt lat="48.60735" lon="-4.50309">
        <ele>64.6</ele>
        <time>2011-06-20T11:00:38Z</time>
      </trkpt>
      <trkpt lat="48.60736" lon="-4.50307">
        <ele>64.6</ele>
        <time>2011-06-20T11:00:39Z</time>
      </trkpt>
      <trkpt lat="48.60737" lon="-4.50306">
        <ele>64.6</ele>
        <time>2011-06-20T11:00:40Z</time>
      </trkpt>
      <trkpt lat="48.60738" lon="-4.50304">
        <ele>64.5</ele>
        <time>2011-06-20T11:00:41Z</time>
      </trkpt>
      <trkpt lat="48.60739" lon="-4.50302">
        <ele>64.2</ele>
        <time>2011-06-20T11:00:42Z</time>
      </trkpt>
      <trkpt lat="48.60739" lon="-4.50301">
        <ele>64.2</ele>
        <time>2011-06-20T11:00:42Z</time>
      </trkpt>
      <trkpt lat="48.60741" lon="-4.50301">
        <ele>64.7</ele>
        <time>2011-06-20T11:00:44Z</time>
      </trkpt>
      <trkpt lat="48.60741" lon="-4.50301">
        <ele>64.7</ele>
        <time>2011-06-20T11:00:53Z</time>
      </trkpt>
      <trkpt lat="48.6075" lon="-4.50285">
        <ele>62.3</ele>
        <time>2011-06-20T11:00:55Z</time>
      </trkpt>
      <trkpt lat="48.60751" lon="-4.50283">
        <ele>62.1</ele>
        <time>2011-06-20T11:00:56Z</time>
      </trkpt>
      <trkpt lat="48.60751" lon="-4.50282">
        <ele>62.3</ele>
        <time>2011-06-20T11:00:57Z</time>
      </trkpt>
      <trkpt lat="48.60753" lon="-4.50281">
        <ele>62.8</ele>
        <time>2011-06-20T11:00:58Z</time>
      </trkpt>
      <trkpt lat="48.60754" lon="-4.50281">
        <ele>63.3</ele>
        <time>2011-06-20T11:00:58Z</time>
      </trkpt>
      <trkpt lat="48.60755" lon="-4.5028">
        <ele>63.4</ele>
        <time>2011-06-20T11:01:00Z</time>
      </trkpt>
      <trkpt lat="48.60757" lon="-4.5028">
        <ele>64.23</ele>
        <time>2011-06-20T11:01:01Z</time>
      </trkpt>
      <trkpt lat="48.60758" lon="-4.50281">
        <ele>64.5</ele>
        <time>2011-06-20T11:01:03Z</time>
      </trkpt>
      <trkpt lat="48.6076" lon="-4.50282">
        <ele>64.3</ele>
        <time>2011-06-20T11:01:03Z</time>
      </trkpt>
      <trkpt lat="48.60761" lon="-4.50283">
        <ele>64.4</ele>
        <time>2011-06-20T11:01:04Z</time>
      </trkpt>
      <trkpt lat="48.60762" lon="-4.50284">
        <ele>64.5</ele>
        <time>2011-06-20T11:01:05Z</time>
      </trkpt>
      <trkpt lat="48.60763" lon="-4.50286">
        <ele>64.7</ele>
        <time>2011-06-20T11:01:06Z</time>
      </trkpt>
      <trkpt lat="48.60765" lon="-4.50287">
        <ele>64.8</ele>
        <time>2011-06-20T11:01:07Z</time>
      </trkpt>
      <trkpt lat="48.60766" lon="-4.50289">
        <ele>65</ele>
        <time>2011-06-20T11:01:08Z</time>
      </trkpt>
      <trkpt lat="48.60767" lon="-4.5029">
        <ele>65.5</ele>
        <time>2011-06-20T11:01:09Z</time>
      </trkpt>
      <trkpt lat="48.60767" lon="-4.50292">
        <ele>65.4</ele>
        <time>2011-06-20T11:01:10Z</time>
      </trkpt>
      <trkpt lat="48.60768" lon="-4.50293">
        <ele>65.4</ele>
        <time>2011-06-20T11:01:11Z</time>
      </trkpt>
      <trkpt lat="48.60768" lon="-4.50296">
        <ele>66.1</ele>
        <time>2011-06-20T11:01:12Z</time>
      </trkpt>
      <trkpt lat="48.60769" lon="-4.50297">
        <ele>66.8</ele>
        <time>2011-06-20T11:01:13Z</time>
      </trkpt>
      <trkpt lat="48.6077" lon="-4.50299">
        <ele>67.2</ele>
        <time>2011-06-20T11:01:14Z</time>
      </trkpt>
      <trkpt lat="48.6077" lon="-4.503">
        <ele>67.3</ele>
        <time>2011-06-20T11:01:15Z</time>
      </trkpt>
      <trkpt lat="48.60771" lon="-4.50302">
        <ele>67.6</ele>
        <time>2011-06-20T11:01:16Z</time>
      </trkpt>
      <trkpt lat="48.60771" lon="-4.50304">
        <ele>67.8</ele>
        <time>2011-06-20T11:01:17Z</time>
      </trkpt>
      <trkpt lat="48.60772" lon="-4.50306">
        <ele>67.9</ele>
        <time>2011-06-20T11:01:18Z</time>
      </trkpt>
      <trkpt lat="48.60773" lon="-4.50307">
        <ele>68</ele>
        <time>2011-06-20T11:01:19Z</time>
      </trkpt>
      <trkpt lat="48.60773" lon="-4.50309">
        <ele>68.2</ele>
        <time>2011-06-20T11:01:20Z</time>
      </trkpt>
      <trkpt lat="48.60774" lon="-4.50311">
        <ele>68</ele>
        <time>2011-06-20T11:01:21Z</time>
      </trkpt>
      <trkpt lat="48.60775" lon="-4.50312">
        <ele>68</ele>
        <time>2011-06-20T11:01:22Z</time>
      </trkpt>
      <trkpt lat="48.60776" lon="-4.50314">
        <ele>68</ele>
        <time>2011-06-20T11:01:23Z</time>
      </trkpt>
      <trkpt lat="48.60776" lon="-4.50316">
        <ele>68.3</ele>
        <time>2011-06-20T11:01:24Z</time>
      </trkpt>
      <trkpt lat="48.60777" lon="-4.50318">
        <ele>68.4</ele>
        <time>2011-06-20T11:01:25Z</time>
      </trkpt>
      <trkpt lat="48.60777" lon="-4.5032">
        <ele>68.4</ele>
        <time>2011-06-20T11:01:26Z</time>
      </trkpt>
      <trkpt lat="48.60778" lon="-4.50322">
        <ele>68.7</ele>
        <time>2011-06-20T11:01:27Z</time>
      </trkpt>
      <trkpt lat="48.60779" lon="-4.50323">
        <ele>68.7</ele>
        <time>2011-06-20T11:01:28Z</time>
      </trkpt>
      <trkpt lat="48.60779" lon="-4.50325">
        <ele>68.6</ele>
        <time>2011-06-20T11:01:29Z</time>
      </trkpt>
      <trkpt lat="48.6078" lon="-4.50326">
        <ele>68.5</ele>
        <time>2011-06-20T11:01:30Z</time>
      </trkpt>
      <trkpt lat="48.60781" lon="-4.50328">
        <ele>68.5</ele>
        <time>2011-06-20T11:01:31Z</time>
      </trkpt>
      <trkpt lat="48.60782" lon="-4.5033">
        <ele>68.6</ele>
        <time>2011-06-20T11:01:32Z</time>
      </trkpt>
      <trkpt lat="48.60782" lon="-4.50332">
        <ele>68.8</ele>
        <time>2011-06-20T11:01:33Z</time>
      </trkpt>
      <trkpt lat="48.60783" lon="-4.50333">
        <ele>68.8</ele>
        <time>2011-06-20T11:01:34Z</time>
      </trkpt>
      <trkpt lat="48.60784" lon="-4.50335">
        <ele>68.8</ele>
        <time>2011-06-20T11:01:35Z</time>
      </trkpt>
      <trkpt lat="48.60785" lon="-4.50336">
        <ele>68.7</ele>
        <time>2011-06-20T11:01:36Z</time>
      </trkpt>
      <trkpt lat="48.60786" lon="-4.50338">
        <ele>68.5</ele>
        <time>2011-06-20T11:01:37Z</time>
      </trkpt>
      <trkpt lat="48.60786" lon="-4.50339">
        <ele>68.5</ele>
        <time>2011-06-20T11:01:38Z</time>
      </trkpt>
      <trkpt lat="48.60787" lon="-4.50341">
        <ele>68.6</ele>
        <time>2011-06-20T11:01:39Z</time>
      </trkpt>
      <trkpt lat="48.60788" lon="-4.50343">
        <ele>68.7</ele>
        <time>2011-06-20T11:01:40Z</time>
      </trkpt>
      <trkpt lat="48.60789" lon="-4.50344">
        <ele>68.5</ele>
        <time>2011-06-20T11:01:41Z</time>
      </trkpt>
      <trkpt lat="48.6079" lon="-4.50346">
        <ele>68.5</ele>
        <time>2011-06-20T11:01:42Z</time>
      </trkpt>
      <trkpt lat="48.6079" lon="-4.50348">
        <ele>68.6</ele>
        <time>2011-06-20T11:01:43Z</time>
      </trkpt>
      <trkpt lat="48.60791" lon="-4.50349">
        <ele>68.6</ele>
        <time>2011-06-20T11:01:44Z</time>
      </trkpt>
      <trkpt lat="48.60792" lon="-4.50351">
        <ele>68.6</ele>
        <time>2011-06-20T11:01:45Z</time>
      </trkpt>
      <trkpt lat="48.60793" lon="-4.50353">
        <ele>68.6</ele>
        <time>2011-06-20T11:01:46Z</time>
      </trkpt>
      <trkpt lat="48.60794" lon="-4.50354">
        <ele>68.5</ele>
        <time>2011-06-20T11:01:47Z</time>
      </trkpt>
      <trkpt lat="48.60795" lon="-4.50356">
        <ele>68.4</ele>
        <time>2011-06-20T11:01:48Z</time>
      </trkpt>
      <trkpt lat="48.60796" lon="-4.50357">
        <ele>68.5</ele>
        <time>2011-06-20T11:01:49Z</time>
      </trkpt>
      <trkpt lat="48.60797" lon="-4.50359">
        <ele>68.5</ele>
        <time>2011-06-20T11:01:50Z</time>
      </trkpt>
      <trkpt lat="48.60798" lon="-4.5036">
        <ele>68.3</ele>
        <time>2011-06-20T11:01:51Z</time>
      </trkpt>
      <trkpt lat="48.60798" lon="-4.50361">
        <ele>68.2</ele>
        <time>2011-06-20T11:01:52Z</time>
      </trkpt>
      <trkpt lat="48.60799" lon="-4.50363">
        <ele>68.2</ele>
        <time>2011-06-20T11:01:53Z</time>
      </trkpt>
      <trkpt lat="48.608" lon="-4.50364">
        <ele>68.2</ele>
        <time>2011-06-20T11:01:54Z</time>
      </trkpt>
      <trkpt lat="48.60801" lon="-4.50366">
        <ele>68.1</ele>
        <time>2011-06-20T11:01:55Z</time>
      </trkpt>
      <trkpt lat="48.60802" lon="-4.50368">
        <ele>68</ele>
        <time>2011-06-20T11:01:56Z</time>
      </trkpt>
      <trkpt lat="48.60803" lon="-4.50369">
        <ele>68.1</ele>
        <time>2011-06-20T11:01:57Z</time>
      </trkpt>
      <trkpt lat="48.60804" lon="-4.5037">
        <ele>68.1</ele>
        <time>2011-06-20T11:01:58Z</time>
      </trkpt>
      <trkpt lat="48.60805" lon="-4.50372">
        <ele>68.1</ele>
        <time>2011-06-20T11:01:59Z</time>
      </trkpt>
      <trkpt lat="48.60806" lon="-4.50373">
        <ele>68</ele>
        <time>2011-06-20T11:02:00Z</time>
      </trkpt>
      <trkpt lat="48.60807" lon="-4.50375">
        <ele>68.1</ele>
        <time>2011-06-20T11:02:01Z</time>
      </trkpt>
      <trkpt lat="48.60808" lon="-4.50376">
        <ele>68</ele>
        <time>2011-06-20T11:02:02Z</time>
      </trkpt>
      <trkpt lat="48.60809" lon="-4.50378">
        <ele>67.9</ele>
        <time>2011-06-20T11:02:03Z</time>
      </trkpt>
      <trkpt lat="48.6081" lon="-4.50379">
        <ele>67.9</ele>
        <time>2011-06-20T11:02:04Z</time>
      </trkpt>
      <trkpt lat="48.60811" lon="-4.5038">
        <ele>67.8</ele>
        <time>2011-06-20T11:02:05Z</time>
      </trkpt>
      <trkpt lat="48.60812" lon="-4.50382">
        <ele>67.7</ele>
        <time>2011-06-20T11:02:06Z</time>
      </trkpt>
      <trkpt lat="48.60813" lon="-4.50383">
        <ele>67.5</ele>
        <time>2011-06-20T11:02:07Z</time>
      </trkpt>
      <trkpt lat="48.60813" lon="-4.50385">
        <ele>67.6</ele>
        <time>2011-06-20T11:02:08Z</time>
      </trkpt>
      <trkpt lat="48.60814" lon="-4.50386">
        <ele>67.6</ele>
        <time>2011-06-20T11:02:09Z</time>
      </trkpt>
      <trkpt lat="48.60815" lon="-4.50388">
        <ele>67.7</ele>
        <time>2011-06-20T11:02:10Z</time>
      </trkpt>
      <trkpt lat="48.60816" lon="-4.50389">
        <ele>67.4</ele>
        <time>2011-06-20T11:02:11Z</time>
      </trkpt>
      <trkpt lat="48.60817" lon="-4.5039">
        <ele>67.3</ele>
        <time>2011-06-20T11:02:12Z</time>
      </trkpt>
      <trkpt lat="48.60818" lon="-4.50391">
        <ele>67.2</ele>
        <time>2011-06-20T11:02:13Z</time>
      </trkpt>
      <trkpt lat="48.6082" lon="-4.50393">
        <ele>67.2</ele>
        <time>2011-06-20T11:02:14Z</time>
      </trkpt>
      <trkpt lat="48.6082" lon="-4.50394">
        <ele>67.1</ele>
        <time>2011-06-20T11:02:15Z</time>
      </trkpt>
      <trkpt lat="48.60821" lon="-4.50395">
        <ele>67.1</ele>
        <time>2011-06-20T11:02:16Z</time>
      </trkpt>
      <trkpt lat="48.60822" lon="-4.50397">
        <ele>66.9</ele>
        <time>2011-06-20T11:02:17Z</time>
      </trkpt>
      <trkpt lat="48.60823" lon="-4.50398">
        <ele>67.1</ele>
        <time>2011-06-20T11:02:18Z</time>
      </trkpt>
      <trkpt lat="48.60825" lon="-4.50398">
        <ele>66.8</ele>
        <time>2011-06-20T11:02:19Z</time>
      </trkpt>
      <trkpt lat="48.60826" lon="-4.50399">
        <ele>66.8</ele>
        <time>2011-06-20T11:02:20Z</time>
      </trkpt>
      <trkpt lat="48.60827" lon="-4.504">
        <ele>66.7</ele>
        <time>2011-06-20T11:02:21Z</time>
      </trkpt>
      <trkpt lat="48.60828" lon="-4.50401">
        <ele>66.4</ele>
        <time>2011-06-20T11:02:22Z</time>
      </trkpt>
      <trkpt lat="48.60829" lon="-4.50402">
        <ele>66.1</ele>
        <time>2011-06-20T11:02:23Z</time>
      </trkpt>
      <trkpt lat="48.60831" lon="-4.50402">
        <ele>65.9</ele>
        <time>2011-06-20T11:02:24Z</time>
      </trkpt>
      <trkpt lat="48.60831" lon="-4.50403">
        <ele>66.4</ele>
        <time>2011-06-20T11:02:26Z</time>
      </trkpt>
      <trkpt lat="48.60831" lon="-4.50403">
        <ele>66.4</ele>
        <time>2011-06-20T11:02:28Z</time>
      </trkpt>
      <trkpt lat="48.60835" lon="-4.50403">
        <ele>65.9</ele>
        <time>2011-06-20T11:02:30Z</time>
      </trkpt>
      <trkpt lat="48.60836" lon="-4.50403">
        <ele>65.8</ele>
        <time>2011-06-20T11:02:31Z</time>
      </trkpt>
      <trkpt lat="48.60837" lon="-4.50403">
        <ele>65.7</ele>
        <time>2011-06-20T11:02:32Z</time>
      </trkpt>
      <trkpt lat="48.60839" lon="-4.50403">
        <ele>65.7</ele>
        <time>2011-06-20T11:02:33Z</time>
      </trkpt>
      <trkpt lat="48.6084" lon="-4.50402">
        <ele>65.6</ele>
        <time>2011-06-20T11:02:34Z</time>
      </trkpt>
      <trkpt lat="48.60841" lon="-4.50402">
        <ele>65.5</ele>
        <time>2011-06-20T11:02:34Z</time>
      </trkpt>
      <trkpt lat="48.60843" lon="-4.50401">
        <ele>65.4</ele>
        <time>2011-06-20T11:02:36Z</time>
      </trkpt>
      <trkpt lat="48.60844" lon="-4.504">
        <ele>65.2</ele>
        <time>2011-06-20T11:02:37Z</time>
      </trkpt>
      <trkpt lat="48.60845" lon="-4.504">
        <ele>65.2</ele>
        <time>2011-06-20T11:02:38Z</time>
      </trkpt>
      <trkpt lat="48.60846" lon="-4.50399">
        <ele>65.3</ele>
        <time>2011-06-20T11:02:39Z</time>
      </trkpt>
      <trkpt lat="48.60848" lon="-4.50399">
        <ele>65.2</ele>
        <time>2011-06-20T11:02:40Z</time>
      </trkpt>
      <trkpt lat="48.60849" lon="-4.50398">
        <ele>65.1</ele>
        <time>2011-06-20T11:02:41Z</time>
      </trkpt>
      <trkpt lat="48.6085" lon="-4.50398">
        <ele>65.2</ele>
        <time>2011-06-20T11:02:42Z</time>
      </trkpt>
      <trkpt lat="48.60851" lon="-4.50398">
        <ele>65.3</ele>
        <time>2011-06-20T11:02:43Z</time>
      </trkpt>
      <trkpt lat="48.60853" lon="-4.50397">
        <ele>65.4</ele>
        <time>2011-06-20T11:02:44Z</time>
      </trkpt>
      <trkpt lat="48.60854" lon="-4.50397">
        <ele>65.3</ele>
        <time>2011-06-20T11:02:45Z</time>
      </trkpt>
      <trkpt lat="48.60855" lon="-4.50396">
        <ele>65.2</ele>
        <time>2011-06-20T11:02:45Z</time>
      </trkpt>
      <trkpt lat="48.60856" lon="-4.50396">
        <ele>65.2</ele>
        <time>2011-06-20T11:02:46Z</time>
      </trkpt>
      <trkpt lat="48.60858" lon="-4.50395">
        <ele>65</ele>
        <time>2011-06-20T11:02:47Z</time>
      </trkpt>
      <trkpt lat="48.60859" lon="-4.50394">
        <ele>64.8</ele>
        <time>2011-06-20T11:02:48Z</time>
      </trkpt>
      <trkpt lat="48.6086" lon="-4.50393">
        <ele>64.7</ele>
        <time>2011-06-20T11:02:49Z</time>
      </trkpt>
      <trkpt lat="48.60861" lon="-4.50393">
        <ele>64.6</ele>
        <time>2011-06-20T11:02:50Z</time>
      </trkpt>
      <trkpt lat="48.60862" lon="-4.50392">
        <ele>64.6</ele>
        <time>2011-06-20T11:02:51Z</time>
      </trkpt>
      <trkpt lat="48.60863" lon="-4.50391">
        <ele>64.5</ele>
        <time>2011-06-20T11:02:52Z</time>
      </trkpt>
      <trkpt lat="48.60865" lon="-4.5039">
        <ele>64.5</ele>
        <time>2011-06-20T11:02:53Z</time>
      </trkpt>
      <trkpt lat="48.60866" lon="-4.50389">
        <ele>64.4</ele>
        <time>2011-06-20T11:02:54Z</time>
      </trkpt>
      <trkpt lat="48.60867" lon="-4.50389">
        <ele>64.4</ele>
        <time>2011-06-20T11:02:55Z</time>
      </trkpt>
      <trkpt lat="48.60869" lon="-4.50388">
        <ele>64.4</ele>
        <time>2011-06-20T11:02:56Z</time>
      </trkpt>
      <trkpt lat="48.6087" lon="-4.50388">
        <ele>64.3</ele>
        <time>2011-06-20T11:02:57Z</time>
      </trkpt>
      <trkpt lat="48.60872" lon="-4.50387">
        <ele>64</ele>
        <time>2011-06-20T11:02:58Z</time>
      </trkpt>
      <trkpt lat="48.60873" lon="-4.50387">
        <ele>63.9</ele>
        <time>2011-06-20T11:02:59Z</time>
      </trkpt>
      <trkpt lat="48.60874" lon="-4.50386">
        <ele>63.8</ele>
        <time>2011-06-20T11:03:00Z</time>
      </trkpt>
      <trkpt lat="48.60876" lon="-4.50385">
        <ele>63.5</ele>
        <time>2011-06-20T11:03:01Z</time>
      </trkpt>
      <trkpt lat="48.60878" lon="-4.50384">
        <ele>63</ele>
        <time>2011-06-20T11:03:02Z</time>
      </trkpt>
      <trkpt lat="48.60879" lon="-4.50383">
        <ele>62.7</ele>
        <time>2011-06-20T11:03:03Z</time>
      </trkpt>
      <trkpt lat="48.60881" lon="-4.50383">
        <ele>62.6</ele>
        <time>2011-06-20T11:03:04Z</time>
      </trkpt>
      <trkpt lat="48.60882" lon="-4.50382">
        <ele>62.6</ele>
        <time>2011-06-20T11:03:05Z</time>
      </trkpt>
      <trkpt lat="48.60883" lon="-4.50381">
        <ele>62.5</ele>
        <time>2011-06-20T11:03:06Z</time>
      </trkpt>
      <trkpt lat="48.60885" lon="-4.50381">
        <ele>62.4</ele>
        <time>2011-06-20T11:03:07Z</time>
      </trkpt>
      <trkpt lat="48.60886" lon="-4.50381">
        <ele>62.5</ele>
        <time>2011-06-20T11:03:08Z</time>
      </trkpt>
      <trkpt lat="48.60887" lon="-4.5038">
        <ele>62.4</ele>
        <time>2011-06-20T11:03:09Z</time>
      </trkpt>
      <trkpt lat="48.60888" lon="-4.5038">
        <ele>62.3</ele>
        <time>2011-06-20T11:03:10Z</time>
      </trkpt>
      <trkpt lat="48.6089" lon="-4.50379">
        <ele>62.1</ele>
        <time>2011-06-20T11:03:11Z</time>
      </trkpt>
      <trkpt lat="48.60892" lon="-4.50379">
        <ele>61.7</ele>
        <time>2011-06-20T11:03:12Z</time>
      </trkpt>
      <trkpt lat="48.60893" lon="-4.50378">
        <ele>61.5</ele>
        <time>2011-06-20T11:03:13Z</time>
      </trkpt>
      <trkpt lat="48.60894" lon="-4.50377">
        <ele>61.4</ele>
        <time>2011-06-20T11:03:14Z</time>
      </trkpt>
      <trkpt lat="48.60896" lon="-4.50376">
        <ele>60.8</ele>
        <time>2011-06-20T11:03:15Z</time>
      </trkpt>
      <trkpt lat="48.60897" lon="-4.50375">
        <ele>60.6</ele>
        <time>2011-06-20T11:03:16Z</time>
      </trkpt>
      <trkpt lat="48.60899" lon="-4.50375">
        <ele>60.6</ele>
        <time>2011-06-20T11:03:17Z</time>
      </trkpt>
      <trkpt lat="48.609" lon="-4.50374">
        <ele>60.6</ele>
        <time>2011-06-20T11:03:18Z</time>
      </trkpt>
      <trkpt lat="48.60901" lon="-4.50374">
        <ele>60.4</ele>
        <time>2011-06-20T11:03:19Z</time>
      </trkpt>
      <trkpt lat="48.60903" lon="-4.50373">
        <ele>60</ele>
        <time>2011-06-20T11:03:20Z</time>
      </trkpt>
      <trkpt lat="48.60904" lon="-4.50372">
        <ele>59.8</ele>
        <time>2011-06-20T11:03:21Z</time>
      </trkpt>
      <trkpt lat="48.60906" lon="-4.50372">
        <ele>59.6</ele>
        <time>2011-06-20T11:03:22Z</time>
      </trkpt>
      <trkpt lat="48.60907" lon="-4.50371">
        <ele>59.6</ele>
        <time>2011-06-20T11:03:23Z</time>
      </trkpt>
      <trkpt lat="48.60909" lon="-4.50371">
        <ele>59.4</ele>
        <time>2011-06-20T11:03:24Z</time>
      </trkpt>
      <trkpt lat="48.6091" lon="-4.5037">
        <ele>59.1</ele>
        <time>2011-06-20T11:03:25Z</time>
      </trkpt>
      <trkpt lat="48.60912" lon="-4.5037">
        <ele>58.9</ele>
        <time>2011-06-20T11:03:26Z</time>
      </trkpt>
      <trkpt lat="48.60913" lon="-4.5037">
        <ele>59</ele>
        <time>2011-06-20T11:03:27Z</time>
      </trkpt>
      <trkpt lat="48.60914" lon="-4.50369">
        <ele>58.8</ele>
        <time>2011-06-20T11:03:28Z</time>
      </trkpt>
      <trkpt lat="48.60916" lon="-4.50369">
        <ele>58.9</ele>
        <time>2011-06-20T11:03:29Z</time>
      </trkpt>
      <trkpt lat="48.60917" lon="-4.50368">
        <ele>58.4</ele>
        <time>2011-06-20T11:03:30Z</time>
      </trkpt>
      <trkpt lat="48.60919" lon="-4.50368">
        <ele>58</ele>
        <time>2011-06-20T11:03:31Z</time>
      </trkpt>
      <trkpt lat="48.6092" lon="-4.50367">
        <ele>58</ele>
        <time>2011-06-20T11:03:32Z</time>
      </trkpt>
      <trkpt lat="48.60921" lon="-4.50367">
        <ele>58.3</ele>
        <time>2011-06-20T11:03:33Z</time>
      </trkpt>
      <trkpt lat="48.60923" lon="-4.50367">
        <ele>57.9</ele>
        <time>2011-06-20T11:03:34Z</time>
      </trkpt>
      <trkpt lat="48.60924" lon="-4.50367">
        <ele>58</ele>
        <time>2011-06-20T11:03:35Z</time>
      </trkpt>
      <trkpt lat="48.60925" lon="-4.50366">
        <ele>58.2</ele>
        <time>2011-06-20T11:03:36Z</time>
      </trkpt>
      <trkpt lat="48.60926" lon="-4.50366">
        <ele>57.9</ele>
        <time>2011-06-20T11:03:37Z</time>
      </trkpt>
      <trkpt lat="48.60927" lon="-4.50366">
        <ele>57.6</ele>
        <time>2011-06-20T11:03:38Z</time>
      </trkpt>
      <trkpt lat="48.60929" lon="-4.50365">
        <ele>57.4</ele>
        <time>2011-06-20T11:03:39Z</time>
      </trkpt>
      <trkpt lat="48.6093" lon="-4.50365">
        <ele>57.1</ele>
        <time>2011-06-20T11:03:40Z</time>
      </trkpt>
      <trkpt lat="48.60931" lon="-4.50365">
        <ele>56.9</ele>
        <time>2011-06-20T11:03:41Z</time>
      </trkpt>
      <trkpt lat="48.60933" lon="-4.50364">
        <ele>56.5</ele>
        <time>2011-06-20T11:03:43Z</time>
      </trkpt>
      <trkpt lat="48.60933" lon="-4.50364">
        <ele>56.5</ele>
        <time>2011-06-20T11:03:45Z</time>
      </trkpt>
      <trkpt lat="48.60933" lon="-4.50364">
        <ele>56.5</ele>
        <time>2011-06-20T11:04:23Z</time>
      </trkpt>
      <trkpt lat="48.60941" lon="-4.50364">
        <ele>59</ele>
        <time>2011-06-20T11:04:25Z</time>
      </trkpt>
      <trkpt lat="48.60942" lon="-4.50363">
        <ele>59.3</ele>
        <time>2011-06-20T11:04:26Z</time>
      </trkpt>
      <trkpt lat="48.60943" lon="-4.50363">
        <ele>59.3</ele>
        <time>2011-06-20T11:04:27Z</time>
      </trkpt>
      <trkpt lat="48.60944" lon="-4.50363">
        <ele>59.7</ele>
        <time>2011-06-20T11:04:28Z</time>
      </trkpt>
      <trkpt lat="48.60946" lon="-4.50363">
        <ele>59.4</ele>
        <time>2011-06-20T11:04:29Z</time>
      </trkpt>
      <trkpt lat="48.60947" lon="-4.50362">
        <ele>59.2</ele>
        <time>2011-06-20T11:04:29Z</time>
      </trkpt>
      <trkpt lat="48.60948" lon="-4.50362">
        <ele>59.2</ele>
        <time>2011-06-20T11:04:30Z</time>
      </trkpt>
      <trkpt lat="48.6095" lon="-4.50361">
        <ele>58.9</ele>
        <time>2011-06-20T11:04:31Z</time>
      </trkpt>
      <trkpt lat="48.60951" lon="-4.5036">
        <ele>58.5</ele>
        <time>2011-06-20T11:04:32Z</time>
      </trkpt>
      <trkpt lat="48.60952" lon="-4.50359">
        <ele>58.3</ele>
        <time>2011-06-20T11:04:33Z</time>
      </trkpt>
      <trkpt lat="48.60954" lon="-4.50359">
        <ele>58.3</ele>
        <time>2011-06-20T11:04:34Z</time>
      </trkpt>
      <trkpt lat="48.60955" lon="-4.50359">
        <ele>58.2</ele>
        <time>2011-06-20T11:04:35Z</time>
      </trkpt>
      <trkpt lat="48.60956" lon="-4.5036">
        <ele>57.9</ele>
        <time>2011-06-20T11:04:36Z</time>
      </trkpt>
      <trkpt lat="48.60958" lon="-4.5036">
        <ele>57.7</ele>
        <time>2011-06-20T11:04:37Z</time>
      </trkpt>
      <trkpt lat="48.60959" lon="-4.50361">
        <ele>57.8</ele>
        <time>2011-06-20T11:04:38Z</time>
      </trkpt>
      <trkpt lat="48.6096" lon="-4.50361">
        <ele>57.7</ele>
        <time>2011-06-20T11:04:39Z</time>
      </trkpt>
      <trkpt lat="48.60961" lon="-4.50361">
        <ele>57.8</ele>
        <time>2011-06-20T11:04:40Z</time>
      </trkpt>
      <trkpt lat="48.60963" lon="-4.50362">
        <ele>57.8</ele>
        <time>2011-06-20T11:04:41Z</time>
      </trkpt>
      <trkpt lat="48.60965" lon="-4.50362">
        <ele>57.7</ele>
        <time>2011-06-20T11:04:42Z</time>
      </trkpt>
      <trkpt lat="48.60966" lon="-4.50362">
        <ele>57.7</ele>
        <time>2011-06-20T11:04:43Z</time>
      </trkpt>
      <trkpt lat="48.60967" lon="-4.50363">
        <ele>58</ele>
        <time>2011-06-20T11:04:44Z</time>
      </trkpt>
      <trkpt lat="48.60968" lon="-4.50363">
        <ele>57.6</ele>
        <time>2011-06-20T11:04:45Z</time>
      </trkpt>
      <trkpt lat="48.6097" lon="-4.50363">
        <ele>57.7</ele>
        <time>2011-06-20T11:04:46Z</time>
      </trkpt>
      <trkpt lat="48.60971" lon="-4.50363">
        <ele>57.8</ele>
        <time>2011-06-20T11:04:47Z</time>
      </trkpt>
      <trkpt lat="48.60972" lon="-4.50362">
        <ele>57.6</ele>
        <time>2011-06-20T11:04:48Z</time>
      </trkpt>
      <trkpt lat="48.60974" lon="-4.50362">
        <ele>57.5</ele>
        <time>2011-06-20T11:04:49Z</time>
      </trkpt>
      <trkpt lat="48.60975" lon="-4.50361">
        <ele>57.3</ele>
        <time>2011-06-20T11:04:50Z</time>
      </trkpt>
      <trkpt lat="48.60977" lon="-4.50361">
        <ele>57.2</ele>
        <time>2011-06-20T11:04:51Z</time>
      </trkpt>
      <trkpt lat="48.60978" lon="-4.5036">
        <ele>57.3</ele>
        <time>2011-06-20T11:04:52Z</time>
      </trkpt>
      <trkpt lat="48.6098" lon="-4.5036">
        <ele>57.2</ele>
        <time>2011-06-20T11:04:53Z</time>
      </trkpt>
      <trkpt lat="48.60981" lon="-4.50359">
        <ele>57.2</ele>
        <time>2011-06-20T11:04:54Z</time>
      </trkpt>
      <trkpt lat="48.60982" lon="-4.50359">
        <ele>57.3</ele>
        <time>2011-06-20T11:04:55Z</time>
      </trkpt>
      <trkpt lat="48.60984" lon="-4.50359">
        <ele>57.4</ele>
        <time>2011-06-20T11:04:56Z</time>
      </trkpt>
      <trkpt lat="48.60985" lon="-4.50358">
        <ele>57.3</ele>
        <time>2011-06-20T11:04:57Z</time>
      </trkpt>
      <trkpt lat="48.60986" lon="-4.50358">
        <ele>57.3</ele>
        <time>2011-06-20T11:04:58Z</time>
      </trkpt>
      <trkpt lat="48.60987" lon="-4.50358">
        <ele>57.5</ele>
        <time>2011-06-20T11:04:59Z</time>
      </trkpt>
      <trkpt lat="48.60989" lon="-4.50357">
        <ele>57.5</ele>
        <time>2011-06-20T11:05:00Z</time>
      </trkpt>
      <trkpt lat="48.6099" lon="-4.50357">
        <ele>57.6</ele>
        <time>2011-06-20T11:05:01Z</time>
      </trkpt>
      <trkpt lat="48.60991" lon="-4.50357">
        <ele>57.6</ele>
        <time>2011-06-20T11:05:02Z</time>
      </trkpt>
      <trkpt lat="48.60993" lon="-4.50356">
        <ele>57.2</ele>
        <time>2011-06-20T11:05:03Z</time>
      </trkpt>
      <trkpt lat="48.60994" lon="-4.50356">
        <ele>57.2</ele>
        <time>2011-06-20T11:05:04Z</time>
      </trkpt>
      <trkpt lat="48.60995" lon="-4.50355">
        <ele>57.2</ele>
        <time>2011-06-20T11:05:05Z</time>
      </trkpt>
      <trkpt lat="48.60997" lon="-4.50355">
        <ele>57.1</ele>
        <time>2011-06-20T11:05:06Z</time>
      </trkpt>
      <trkpt lat="48.60998" lon="-4.50355">
        <ele>57.1</ele>
        <time>2011-06-20T11:05:07Z</time>
      </trkpt>
      <trkpt lat="48.60999" lon="-4.50354">
        <ele>56.9</ele>
        <time>2011-06-20T11:05:08Z</time>
      </trkpt>
      <trkpt lat="48.61001" lon="-4.50354">
        <ele>56.8</ele>
        <time>2011-06-20T11:05:09Z</time>
      </trkpt>
      <trkpt lat="48.61002" lon="-4.50353">
        <ele>56.8</ele>
        <time>2011-06-20T11:05:10Z</time>
      </trkpt>
      <trkpt lat="48.61004" lon="-4.50353">
        <ele>56.3</ele>
        <time>2011-06-20T11:05:11Z</time>
      </trkpt>
      <trkpt lat="48.61005" lon="-4.50352">
        <ele>56.3</ele>
        <time>2011-06-20T11:05:12Z</time>
      </trkpt>
      <trkpt lat="48.61006" lon="-4.50352">
        <ele>55.9</ele>
        <time>2011-06-20T11:05:13Z</time>
      </trkpt>
      <trkpt lat="48.61007" lon="-4.50352">
        <ele>55.9</ele>
        <time>2011-06-20T11:05:14Z</time>
      </trkpt>
      <trkpt lat="48.61008" lon="-4.50351">
        <ele>56.1</ele>
        <time>2011-06-20T11:05:15Z</time>
      </trkpt>
      <trkpt lat="48.61009" lon="-4.50351">
        <ele>56.1</ele>
        <time>2011-06-20T11:05:17Z</time>
      </trkpt>
      <trkpt lat="48.61009" lon="-4.50351">
        <ele>56.1</ele>
        <time>2011-06-20T11:05:34Z</time>
      </trkpt>
      <trkpt lat="48.61017" lon="-4.50358">
        <ele>56.2</ele>
        <time>2011-06-20T11:05:36Z</time>
      </trkpt>
      <trkpt lat="48.61017" lon="-4.5036">
        <ele>56.3</ele>
        <time>2011-06-20T11:05:37Z</time>
      </trkpt>
      <trkpt lat="48.61018" lon="-4.50362">
        <ele>56.1</ele>
        <time>2011-06-20T11:05:38Z</time>
      </trkpt>
      <trkpt lat="48.61018" lon="-4.50364">
        <ele>56.3</ele>
        <time>2011-06-20T11:05:40Z</time>
      </trkpt>
      <trkpt lat="48.61018" lon="-4.50366">
        <ele>56.6</ele>
        <time>2011-06-20T11:05:41Z</time>
      </trkpt>
      <trkpt lat="48.61019" lon="-4.50368">
        <ele>56.1</ele>
        <time>2011-06-20T11:05:41Z</time>
      </trkpt>
      <trkpt lat="48.61019" lon="-4.5037">
        <ele>55.3</ele>
        <time>2011-06-20T11:05:42Z</time>
      </trkpt>
      <trkpt lat="48.61019" lon="-4.50372">
        <ele>55.2</ele>
        <time>2011-06-20T11:05:42Z</time>
      </trkpt>
      <trkpt lat="48.61019" lon="-4.50374">
        <ele>54.9</ele>
        <time>2011-06-20T11:05:44Z</time>
      </trkpt>
      <trkpt lat="48.61019" lon="-4.50376">
        <ele>54.5</ele>
        <time>2011-06-20T11:05:45Z</time>
      </trkpt>
      <trkpt lat="48.61019" lon="-4.50378">
        <ele>54</ele>
        <time>2011-06-20T11:05:46Z</time>
      </trkpt>
      <trkpt lat="48.61019" lon="-4.50381">
        <ele>53.8</ele>
        <time>2011-06-20T11:05:47Z</time>
      </trkpt>
      <trkpt lat="48.61019" lon="-4.50383">
        <ele>53.8</ele>
        <time>2011-06-20T11:05:48Z</time>
      </trkpt>
      <trkpt lat="48.61019" lon="-4.50386">
        <ele>53.9</ele>
        <time>2011-06-20T11:05:48Z</time>
      </trkpt>
      <trkpt lat="48.6102" lon="-4.50387">
        <ele>53.7</ele>
        <time>2011-06-20T11:05:50Z</time>
      </trkpt>
      <trkpt lat="48.61021" lon="-4.50389">
        <ele>53.5</ele>
        <time>2011-06-20T11:05:51Z</time>
      </trkpt>
      <trkpt lat="48.61021" lon="-4.5039">
        <ele>53.3</ele>
        <time>2011-06-20T11:05:52Z</time>
      </trkpt>
      <trkpt lat="48.61022" lon="-4.50392">
        <ele>53.1</ele>
        <time>2011-06-20T11:06:09Z</time>
      </trkpt>
    </trkseg>
  </trk>
</gpx>